Observation data for Dell City 1N on 01/18/2019      Previous  Date  Next       Current Mesonet Observations  Soil Data  Daily Summary Page  Observations in Plain Language
KDC1 180600Z 22001KT 04/M01 A3012 RMK A01 T00401014  RH  068%=      5-min Rain = 0
KDC1 180601Z 22001KT 04/M01 A3012 RMK A01 T00401014  RH  067%=      5-min Rain = 0
KDC1 180602Z 13002KT 04/M02 A3012 RMK A01 T00411015  RH  067%=      5-min Rain = 0
KDC1 180603Z 12002KT 04/M02 A3012 RMK A01 T00401015  RH  067%=      5-min Rain = 0
KDC1 180604Z 22002KT 04/M02 A3012 RMK A01 T00401015  RH  067%=      5-min Rain = 0
KDC1 180605Z 21003KT 04/M02 A3012 RMK A01 T00401015  RH  067%=      5-min Rain = 0
KDC1 180606Z 16002KT 04/M02 A3012 RMK A01 T00411015  RH  067%=      5-min Rain = 0
KDC1 180607Z 16002KT 04/M02 A3011 RMK A01 T00421015  RH  066%=      5-min Rain = 0
KDC1 180608Z 22003KT 04/M02 A3012 RMK A01 T00421015  RH  067%=      5-min Rain = 0
KDC1 180609Z 22004KT 04/M02 A3012 RMK A01 T00411015  RH  067%=      5-min Rain = 0
KDC1 180610Z 18004KT 04/M02 A3012 RMK A01 T00411015  RH  067%=      5-min Rain = 0
KDC1 180611Z 17004KT 04/M02 A3011 RMK A01 T00431015  RH  066%=      5-min Rain = 0
KDC1 180612Z 20003KT 04/M02 A3012 RMK A01 T00441015  RH  065%=      5-min Rain = 0
KDC1 180613Z 20003KT 04/M02 A3012 RMK A01 T00441016  RH  065%=      5-min Rain = 0
KDC1 180614Z 19003KT 04/M02 A3012 RMK A01 T00441016  RH  065%=      5-min Rain = 0
KDC1 180615Z 18002KT 05/M02 A3012 RMK A01 T00451016  RH  065%=      5-min Rain = 0
KDC1 180616Z 17003KT 04/M02 A3012 RMK A01 T00441016  RH  065%=      5-min Rain = 0
KDC1 180617Z 20003KT 04/M02 A3012 RMK A01 T00431017  RH  065%=      5-min Rain = 0
KDC1 180618Z 21004KT 04/M02 A3012 RMK A01 T00411017  RH  066%=      5-min Rain = 0
KDC1 180619Z 18002KT 04/M02 A3012 RMK A01 T00411016  RH  066%=      5-min Rain = 0
KDC1 180620Z 14002KT 04/M02 A3012 RMK A01 T00431016  RH  066%=      5-min Rain = 0
KDC1 180621Z 12002KT 05/M02 A3012 RMK A01 T00451016  RH  065%=      5-min Rain = 0
KDC1 180622Z 18000KT 04/M02 A3012 RMK A01 T00441017  RH  065%=      5-min Rain = 0
KDC1 180623Z 00000KT 04/M02 A3012 RMK A01 T00411017  RH  066%=      5-min Rain = 0
KDC1 180624Z 19001KT 04/M02 A3012 RMK A01 T00391017  RH  067%=      5-min Rain = 0
KDC1 180625Z 18002KT 04/M02 A3012 RMK A01 T00391016  RH  067%=      5-min Rain = 0
KDC1 180626Z 17001KT 04/M02 A3012 RMK A01 T00391016  RH  067%=      5-min Rain = 0
KDC1 180627Z 22000KT 04/M02 A3012 RMK A01 T00401017  RH  067%=      5-min Rain = 0
KDC1 180628Z 00000KT 04/M02 A3012 RMK A01 T00391017  RH  067%=      5-min Rain = 0
KDC1 180629Z 28001KT 04/M02 A3012 RMK A01 T00391017  RH  067%=      5-min Rain = 0
KDC1 180630Z 28003KT 04/M02 A3012 RMK A01 T00381017  RH  068%=      5-min Rain = 0
KDC1 180631Z 28002KT 03/M02 A3012 RMK A01 T00341018  RH  069%=      5-min Rain = 0
KDC1 180632Z 04001KT 03/M02 A3011 RMK A01 T00311017  RH  071%=      5-min Rain = 0
KDC1 180633Z 07001KT 03/M02 A3011 RMK A01 T00301017  RH  071%=      5-min Rain = 0
KDC1 180634Z 01000KT 03/M02 A3011 RMK A01 T00301016  RH  072%=      5-min Rain = 0
KDC1 180635Z 33003KT 03/M02 A3011 RMK A01 T00301016  RH  072%=      5-min Rain = 0
KDC1 180636Z 30005KT 03/M02 A3011 RMK A01 T00311016  RH  072%=      5-min Rain = 0
KDC1 180637Z 27002KT 03/M02 A3011 RMK A01 T00321017  RH  071%=      5-min Rain = 0
KDC1 180638Z 17001KT 03/M02 A3011 RMK A01 T00311017  RH  071%=      5-min Rain = 0
KDC1 180639Z 13002KT 03/M02 A3011 RMK A01 T00321016  RH  071%=      5-min Rain = 0
KDC1 180640Z 11002KT 03/M02 A3011 RMK A01 T00331015  RH  071%=      5-min Rain = 0
KDC1 180641Z 11000KT 04/M01 A3011 RMK A01 T00371013  RH  070%=      5-min Rain = 0
KDC1 180642Z 32004KT 04/M01 A3011 RMK A01 T00391014  RH  068%=      5-min Rain = 0
KDC1 180643Z 33003KT 04/M02 A3011 RMK A01 T00351017  RH  069%=      5-min Rain = 0
KDC1 180644Z 25004KT 03/M02 A3011 RMK A01 T00341017  RH  070%=      5-min Rain = 0
KDC1 180645Z 26005KT 04/M02 A3011 RMK A01 T00361015  RH  069%=      5-min Rain = 0
KDC1 180646Z 25006KT 04/M01 A3011 RMK A01 T00421013  RH  068%=      5-min Rain = 0
KDC1 180647Z 23005KT 05/M01 A3011 RMK A01 T00461012  RH  066%=      5-min Rain = 0
KDC1 180648Z 23006KT 05/M01 A3011 RMK A01 T00491012  RH  064%=      5-min Rain = 0
KDC1 180649Z 22003KT 05/M01 A3011 RMK A01 T00531012  RH  063%=      5-min Rain = 0
KDC1 180650Z 28002KT 06/M01 A3011 RMK A01 T00561012  RH  061%=      5-min Rain = 0
KDC1 180651Z 29008KT 06/M01 A3011 RMK A01 T00571013  RH  060%=      5-min Rain = 0
KDC1 180652Z 31003G8KT 06/M02 A3011 RMK A01 T00581015  RH  060%=      5-min Rain = 0
KDC1 180653Z 03001KT 06/M01 A3011 RMK A01 T00631014  RH  058%=      5-min Rain = 0
KDC1 180654Z 32002KT 07/M01 A3011 RMK A01 T00681014  RH  056%=      5-min Rain = 0
KDC1 180655Z 26004KT 07/M01 A3011 RMK A01 T00701014  RH  055%=      5-min Rain = 0
KDC1 180656Z 21001KT 07/M02 A3011 RMK A01 T00671016  RH  055%=      5-min Rain = 0
KDC1 180657Z 29002KT 06/M02 A3011 RMK A01 T00641016  RH  057%=      5-min Rain = 0
KDC1 180658Z 29005KT 06/M02 A3011 RMK A01 T00631015  RH  057%=      5-min Rain = 0
KDC1 180659Z 28003KT 07/M02 A3011 RMK A01 T00651015  RH  057%=      5-min Rain = 0
KDC1 180700Z 31001KT 07/M02 A3011 RMK A01 T00691016  RH  055%=      5-min Rain = 0
KDC1 180701Z 30003KT 07/M02 A3011 RMK A01 T00691017  RH  054%=      5-min Rain = 0
KDC1 180702Z 30003KT 06/M02 A3011 RMK A01 T00631018  RH  056%=      5-min Rain = 0
KDC1 180703Z 31003KT 06/M02 A3011 RMK A01 T00571019  RH  058%=      5-min Rain = 0
KDC1 180704Z 30002KT 05/M02 A3011 RMK A01 T00511019  RH  061%=      5-min Rain = 0
KDC1 180705Z 33002KT 05/M02 A3011 RMK A01 T00471018  RH  062%=      5-min Rain = 0
KDC1 180706Z 30001KT 05/M02 A301 RMK A01 T00451018  RH  064%=      5-min Rain = 0
KDC1 180707Z 33003KT 04/M02 A301 RMK A01 T00441018  RH  064%=      5-min Rain = 0
KDC1 180708Z 32005KT 04/M02 A301 RMK A01 T00411017  RH  066%=      5-min Rain = 0
KDC1 180709Z 33004KT 04/M02 A301 RMK A01 T00371017  RH  068%=      5-min Rain = 0
KDC1 180710Z 31003KT 04/M02 A301 RMK A01 T00351017  RH  069%=      5-min Rain = 0
KDC1 180711Z 31005KT 03/M02 A301 RMK A01 T00341016  RH  070%=      5-min Rain = 0
KDC1 180712Z 31004KT 03/M02 A301 RMK A01 T00341016  RH  070%=      5-min Rain = 0
KDC1 180713Z 30002KT 03/M02 A301 RMK A01 T00331016  RH  070%=      5-min Rain = 0
KDC1 180714Z 31002KT 03/M02 A301 RMK A01 T00341016  RH  070%=      5-min Rain = 0
KDC1 180715Z 31004KT 03/M02 A301 RMK A01 T00341016  RH  069%=      5-min Rain = 0
KDC1 180716Z 30004KT 03/M02 A301 RMK A01 T00341017  RH  069%=      5-min Rain = 0
KDC1 180717Z 31004KT 03/M02 A301 RMK A01 T00341017  RH  069%=      5-min Rain = 0
KDC1 180718Z 33003KT 03/M02 A301 RMK A01 T00331017  RH  070%=      5-min Rain = 0
KDC1 180719Z 34002KT 03/M02 A301 RMK A01 T00341017  RH  069%=      5-min Rain = 0
KDC1 180720Z 33004KT 04/M02 A301 RMK A01 T00361017  RH  068%=      5-min Rain = 0
KDC1 180721Z 31005KT 04/M02 A301 RMK A01 T00371018  RH  067%=      5-min Rain = 0
KDC1 180722Z 32004KT 04/M02 A301 RMK A01 T00361018  RH  067%=      5-min Rain = 0
KDC1 180723Z 30006KT 04/M02 A301 RMK A01 T00361018  RH  068%=      5-min Rain = 0
KDC1 180724Z 30005KT 04/M02 A301 RMK A01 T00371018  RH  067%=      5-min Rain = 0
KDC1 180725Z 30004KT 04/M02 A301 RMK A01 T00401018  RH  066%=      5-min Rain = 0
KDC1 180726Z 32002KT 04/M02 A301 RMK A01 T00411019  RH  065%=      5-min Rain = 0
KDC1 180727Z 32003KT 04/M02 A301 RMK A01 T00441018  RH  064%=      5-min Rain = 0
KDC1 180728Z 32004KT 05/M02 A301 RMK A01 T00461019  RH  063%=      5-min Rain = 0
KDC1 180729Z 32003KT 05/M02 A301 RMK A01 T00461020  RH  063%=      5-min Rain = 0
KDC1 180730Z 31003KT 05/M02 A301 RMK A01 T00461020  RH  062%=      5-min Rain = 0
KDC1 180731Z 31004KT 05/M02 A301 RMK A01 T00481021  RH  061%=      5-min Rain = 0
KDC1 180732Z 30004KT 05/M02 A301 RMK A01 T00481021  RH  061%=      5-min Rain = 0
KDC1 180733Z 31004KT 05/M02 A301 RMK A01 T00491021  RH  060%=      5-min Rain = 0
KDC1 180734Z 32004KT 05/M02 A3009 RMK A01 T00511021  RH  060%=      5-min Rain = 0
KDC1 180735Z 31004KT 05/M02 A3009 RMK A01 T00511022  RH  060%=      5-min Rain = 0
KDC1 180736Z 30003KT 05/M02 A3009 RMK A01 T00501021  RH  060%=      5-min Rain = 0
KDC1 180737Z 30002KT 05/M02 A3009 RMK A01 T00471022  RH  061%=      5-min Rain = 0
KDC1 180738Z 32004KT 05/M02 A3009 RMK A01 T00461022  RH  061%=      5-min Rain = 0
KDC1 180739Z 31006KT 05/M02 A3009 RMK A01 T00451021  RH  062%=      5-min Rain = 0
KDC1 180740Z 31004KT 04/M02 A3009 RMK A01 T00411022  RH  063%=      5-min Rain = 0
KDC1 180741Z 32004KT 04/M02 A3009 RMK A01 T00381022  RH  065%=      5-min Rain = 0
KDC1 180742Z 33003KT 04/M02 A3009 RMK A01 T00371021  RH  066%=      5-min Rain = 0
KDC1 180743Z 32002KT 04/M02 A3009 RMK A01 T00381020  RH  066%=      5-min Rain = 0
KDC1 180744Z 30003KT 04/M02 A3009 RMK A01 T00391020  RH  065%=      5-min Rain = 0
KDC1 180745Z 31004KT 04/M02 A3009 RMK A01 T00411020  RH  065%=      5-min Rain = 0
KDC1 180746Z 31003KT 04/M02 A3009 RMK A01 T00391020  RH  065%=      5-min Rain = 0
KDC1 180747Z 31003KT 04/M02 A3009 RMK A01 T00371020  RH  066%=      5-min Rain = 0
KDC1 180748Z 32002KT 04/M02 A3009 RMK A01 T00361020  RH  067%=      5-min Rain = 0
KDC1 180749Z 34002KT 04/M02 A3009 RMK A01 T00361020  RH  067%=      5-min Rain = 0
KDC1 180750Z 36001KT 04/M02 A3009 RMK A01 T00351020  RH  067%=      5-min Rain = 0
KDC1 180751Z 27003KT 04/M02 A3009 RMK A01 T00351020  RH  067%=      5-min Rain = 0
KDC1 180752Z 27002KT 04/M02 A3009 RMK A01 T00351020  RH  067%=      5-min Rain = 0
KDC1 180753Z 33000KT 04/M02 A3009 RMK A01 T00351020  RH  067%=      5-min Rain = 0
KDC1 180754Z 00000KT 04/M02 A3009 RMK A01 T00351020  RH  067%=      5-min Rain = 0
KDC1 180755Z 15001KT 03/M02 A3009 RMK A01 T00331020  RH  068%=      5-min Rain = 0
KDC1 180756Z 15002KT 03/M02 A3009 RMK A01 T00301021  RH  069%=      5-min Rain = 0
KDC1 180757Z 07001KT 03/M02 A3009 RMK A01 T00301021  RH  070%=      5-min Rain = 0
KDC1 180758Z 05001KT 03/M02 A3009 RMK A01 T00291021  RH  070%=      5-min Rain = 0
KDC1 180759Z 04001KT 03/M02 A3009 RMK A01 T00291021  RH  070%=      5-min Rain = 0
KDC1 180800Z 18001KT 03/M02 A3009 RMK A01 T00291020  RH  070%=      5-min Rain = 0
KDC1 180801Z 12000KT 03/M02 A3009 RMK A01 T00301020  RH  070%=      5-min Rain = 0
KDC1 180802Z 06001KT 03/M02 A3009 RMK A01 T00311019  RH  069%=      5-min Rain = 0
KDC1 180803Z 07003KT 04/M02 A3009 RMK A01 T00361017  RH  068%=      5-min Rain = 0
KDC1 180804Z 09002KT 04/M02 A3009 RMK A01 T00391018  RH  066%=      5-min Rain = 0
KDC1 180805Z 12002KT 04/M02 A3009 RMK A01 T00371020  RH  066%=      5-min Rain = 0
KDC1 180806Z 12002KT 04/M02 A3009 RMK A01 T00351021  RH  067%=      5-min Rain = 0
KDC1 180807Z 11003KT 03/M02 A3009 RMK A01 T00321022  RH  068%=      5-min Rain = 0
KDC1 180808Z 11003KT 03/M02 A3009 RMK A01 T00291022  RH  069%=      5-min Rain = 0
KDC1 180809Z 10002KT 03/M02 A3009 RMK A01 T00271021  RH  070%=      5-min Rain = 0
KDC1 180810Z 08003KT 03/M02 A3009 RMK A01 T00271020  RH  071%=      5-min Rain = 0
KDC1 180811Z 08003KT 03/M02 A3008 RMK A01 T00251021  RH  071%=      5-min Rain = 0
KDC1 180812Z 09001KT 02/M02 A3009 RMK A01 T00231021  RH  072%=      5-min Rain = 0
KDC1 180813Z 19002KT 02/M02 A3009 RMK A01 T00231021  RH  073%=      5-min Rain = 0
KDC1 180814Z 14001KT 02/M02 A3009 RMK A01 T00231020  RH  073%=      5-min Rain = 0
KDC1 180815Z 12000KT 02/M02 A3009 RMK A01 T00221020  RH  074%=      5-min Rain = 0
KDC1 180816Z 26002KT 02/M02 A3009 RMK A01 T00241019  RH  073%=      5-min Rain = 0
KDC1 180817Z 22001KT 03/M02 A3009 RMK A01 T00261019  RH  072%=      5-min Rain = 0
KDC1 180818Z 17002KT 03/M02 A3009 RMK A01 T00271019  RH  071%=      5-min Rain = 0
KDC1 180819Z 15002KT 03/M02 A3009 RMK A01 T00281019  RH  071%=      5-min Rain = 0
KDC1 180820Z 15002KT 03/M02 A3009 RMK A01 T00301018  RH  070%=      5-min Rain = 0
KDC1 180821Z 20002KT 03/M02 A3009 RMK A01 T00311019  RH  070%=      5-min Rain = 0
KDC1 180822Z 19003KT 03/M02 A3009 RMK A01 T00311019  RH  070%=      5-min Rain = 0
KDC1 180823Z 20002KT 03/M02 A3009 RMK A01 T00321019  RH  070%=      5-min Rain = 0
KDC1 180824Z 24001KT 03/M02 A3009 RMK A01 T00321019  RH  069%=      5-min Rain = 0
KDC1 180825Z 27001KT 03/M02 A3009 RMK A01 T00321019  RH  069%=      5-min Rain = 0
KDC1 180826Z 26001KT 03/M02 A3009 RMK A01 T00331019  RH  069%=      5-min Rain = 0
KDC1 180827Z 24001KT 03/M02 A3009 RMK A01 T00341018  RH  068%=      5-min Rain = 0
KDC1 180828Z 25001KT 04/M02 A3009 RMK A01 T00351019  RH  068%=      5-min Rain = 0
KDC1 180829Z 27002KT 04/M02 A3009 RMK A01 T00351019  RH  068%=      5-min Rain = 0
KDC1 180830Z 28000KT 03/M02 A3009 RMK A01 T00341019  RH  069%=      5-min Rain = 0
KDC1 180831Z 00000KT 03/M02 A3009 RMK A01 T00341019  RH  068%=      5-min Rain = 0
KDC1 180832Z 27000KT 03/M02 A3009 RMK A01 T00321020  RH  068%=      5-min Rain = 0
KDC1 180833Z 27001KT 03/M02 A3009 RMK A01 T00301020  RH  069%=      5-min Rain = 0
KDC1 180834Z 23000KT 03/M02 A3008 RMK A01 T00291020  RH  070%=      5-min Rain = 0
KDC1 180835Z 20000KT 03/M02 A3008 RMK A01 T00291020  RH  070%=      5-min Rain = 0
KDC1 180836Z 12000KT 03/M02 A3008 RMK A01 T00301019  RH  071%=      5-min Rain = 0
KDC1 180837Z 19000KT 03/M02 A3008 RMK A01 T00311019  RH  070%=      5-min Rain = 0
KDC1 180838Z 20001KT 03/M02 A3008 RMK A01 T00321019  RH  069%=      5-min Rain = 0
KDC1 180839Z 19001KT 03/M02 A3008 RMK A01 T00321019  RH  069%=      5-min Rain = 0
KDC1 180840Z 18001KT 03/M02 A3008 RMK A01 T00331019  RH  069%=      5-min Rain = 0
KDC1 180841Z 16002KT 03/M02 A3008 RMK A01 T00331018  RH  069%=      5-min Rain = 0
KDC1 180842Z 14002KT 03/M02 A3008 RMK A01 T00331018  RH  069%=      5-min Rain = 0
KDC1 180843Z 14002KT 03/M02 A3008 RMK A01 T00341018  RH  069%=      5-min Rain = 0
KDC1 180844Z 15001KT 04/M02 A3008 RMK A01 T00351018  RH  069%=      5-min Rain = 0
KDC1 180845Z 13001KT 04/M02 A3008 RMK A01 T00351018  RH  068%=      5-min Rain = 0
KDC1 180846Z 13002KT 04/M02 A3008 RMK A01 T00361018  RH  068%=      5-min Rain = 0
KDC1 180847Z 14001KT 04/M02 A3008 RMK A01 T00351019  RH  068%=      5-min Rain = 0
KDC1 180848Z 14001KT 03/M02 A3008 RMK A01 T00341021  RH  068%=      5-min Rain = 0
KDC1 180849Z 12001KT 03/M02 A3008 RMK A01 T00321021  RH  069%=      5-min Rain = 0
KDC1 180850Z 12001KT 03/M02 A3008 RMK A01 T00311020  RH  069%=      5-min Rain = 0
KDC1 180851Z 12001KT 03/M02 A3008 RMK A01 T00311020  RH  069%=      5-min Rain = 0
KDC1 180852Z 12001KT 03/M02 A3008 RMK A01 T00301021  RH  069%=      5-min Rain = 0
KDC1 180853Z 12001KT 03/M02 A3008 RMK A01 T00301020  RH  070%=      5-min Rain = 0
KDC1 180854Z 11001KT 03/M02 A3008 RMK A01 T00291020  RH  070%=      5-min Rain = 0
KDC1 180855Z 08001KT 03/M02 A3008 RMK A01 T00281022  RH  070%=      5-min Rain = 0
KDC1 180856Z 07001KT 03/M02 A3008 RMK A01 T00271021  RH  071%=      5-min Rain = 0
KDC1 180857Z 08001KT 03/M02 A3008 RMK A01 T00261021  RH  071%=      5-min Rain = 0
KDC1 180858Z 03002KT 03/M02 A3007 RMK A01 T00261021  RH  071%=      5-min Rain = 0
KDC1 180859Z 04002KT 03/M02 A3007 RMK A01 T00251021  RH  072%=      5-min Rain = 0
KDC1 180900Z 05002KT 02/M02 A3007 RMK A01 T00241021  RH  072%=      5-min Rain = 0
KDC1 180901Z 04003KT 02/M02 A3007 RMK A01 T00241021  RH  072%=      5-min Rain = 0
KDC1 180902Z 07002KT 03/M02 A3007 RMK A01 T00251021  RH  072%=      5-min Rain = 0
KDC1 180903Z 07002KT 03/M02 A3007 RMK A01 T00261021  RH  071%=      5-min Rain = 0
KDC1 180904Z 03002KT 03/M02 A3007 RMK A01 T00271021  RH  071%=      5-min Rain = 0
KDC1 180905Z 04002KT 03/M02 A3007 RMK A01 T00271021  RH  071%=      5-min Rain = 0
KDC1 180906Z 06003KT 03/M02 A3007 RMK A01 T00281021  RH  070%=      5-min Rain = 0
KDC1 180907Z 06003KT 03/M02 A3007 RMK A01 T00291020  RH  070%=      5-min Rain = 0
KDC1 180908Z 06003KT 03/M02 A3007 RMK A01 T00301021  RH  069%=      5-min Rain = 0
KDC1 180909Z 06002KT 03/M02 A3007 RMK A01 T00301021  RH  069%=      5-min Rain = 0
KDC1 180910Z 05002KT 03/M02 A3007 RMK A01 T00291021  RH  070%=      5-min Rain = 0
KDC1 180911Z 02003KT 03/M02 A3007 RMK A01 T00301020  RH  070%=      5-min Rain = 0
KDC1 180912Z 03004KT 03/M02 A3007 RMK A01 T00291020  RH  070%=      5-min Rain = 0
KDC1 180913Z 05003KT 03/M02 A3007 RMK A01 T00281021  RH  070%=      5-min Rain = 0
KDC1 180914Z 03003KT 03/M02 A3007 RMK A01 T00281021  RH  070%=      5-min Rain = 0
KDC1 180915Z 02003KT 03/M02 A3007 RMK A01 T00281021  RH  070%=      5-min Rain = 0
KDC1 180916Z 02003KT 03/M02 A3007 RMK A01 T00281020  RH  070%=      5-min Rain = 0
KDC1 180917Z 03003KT 03/M02 A3007 RMK A01 T00271020  RH  071%=      5-min Rain = 0
KDC1 180918Z 03003KT 03/M02 A3007 RMK A01 T00271020  RH  071%=      5-min Rain = 0
KDC1 180919Z 03004KT 03/M02 A3007 RMK A01 T00261020  RH  071%=      5-min Rain = 0
KDC1 180920Z 04004KT 03/M02 A3007 RMK A01 T00251021  RH  071%=      5-min Rain = 0
KDC1 180921Z 03005KT 03/M02 A3007 RMK A01 T00251021  RH  072%=      5-min Rain = 0
KDC1 180922Z 03005KT 03/M02 A3007 RMK A01 T00251021  RH  072%=      5-min Rain = 0
KDC1 180923Z 04005KT 02/M02 A3007 RMK A01 T00241021  RH  072%=      5-min Rain = 0
KDC1 180924Z 04005KT 02/M02 A3007 RMK A01 T00241022  RH  072%=      5-min Rain = 0
KDC1 180925Z 05004KT 02/M02 A3007 RMK A01 T00241022  RH  072%=      5-min Rain = 0
KDC1 180926Z 06003KT 02/M02 A3007 RMK A01 T00241022  RH  072%=      5-min Rain = 0
KDC1 180927Z 06003KT 02/M02 A3007 RMK A01 T00241021  RH  072%=      5-min Rain = 0
KDC1 180928Z 06003KT 02/M02 A3006 RMK A01 T00241022  RH  072%=      5-min Rain = 0
KDC1 180929Z 05004KT 02/M02 A3007 RMK A01 T00241022  RH  072%=      5-min Rain = 0
KDC1 180930Z 06004KT 02/M02 A3007 RMK A01 T00241022  RH  071%=      5-min Rain = 0
KDC1 180931Z 08004KT 03/M02 A3006 RMK A01 T00251022  RH  071%=      5-min Rain = 0
KDC1 180932Z 09004KT 03/M02 A3006 RMK A01 T00261022  RH  070%=      5-min Rain = 0
KDC1 180933Z 10004KT 03/M02 A3006 RMK A01 T00261023  RH  070%=      5-min Rain = 0
KDC1 180934Z 10004KT 03/M02 A3006 RMK A01 T00261023  RH  070%=      5-min Rain = 0
KDC1 180935Z 11004KT 02/M02 A3006 RMK A01 T00241022  RH  072%=      5-min Rain = 0
KDC1 180936Z 11004KT 02/M02 A3006 RMK A01 T00221021  RH  074%=      5-min Rain = 0
KDC1 180937Z 11005KT 02/M02 A3006 RMK A01 T00201020  RH  075%=      5-min Rain = 0
KDC1 180938Z 12004KT 02/M02 A3006 RMK A01 T00181019  RH  076%=      5-min Rain = 0
KDC1 180939Z 10004KT 02/M02 A3006 RMK A01 T00171020  RH  076%=      5-min Rain = 0
KDC1 180940Z 10003KT 02/M02 A3006 RMK A01 T00161020  RH  077%=      5-min Rain = 0
KDC1 180941Z 11003KT 02/M02 A3006 RMK A01 T00161020  RH  077%=      5-min Rain = 0
KDC1 180942Z 12003KT 02/M02 A3006 RMK A01 T00161019  RH  077%=      5-min Rain = 0
KDC1 180943Z 13004KT 02/M02 A3005 RMK A01 T00161020  RH  077%=      5-min Rain = 0
KDC1 180944Z 12004KT 02/M02 A3005 RMK A01 T00171019  RH  077%=      5-min Rain = 0
KDC1 180945Z 12004KT 02/M02 A3005 RMK A01 T00171019  RH  077%=      5-min Rain = 0
KDC1 180946Z 11005KT 02/M02 A3005 RMK A01 T00181020  RH  076%=      5-min Rain = 0
KDC1 180947Z 11003KT 02/M02 A3005 RMK A01 T00201020  RH  075%=      5-min Rain = 0
KDC1 180948Z 11003KT 02/M02 A3005 RMK A01 T00221020  RH  074%=      5-min Rain = 0
KDC1 180949Z 10003KT 02/M02 A3005 RMK A01 T00221019  RH  074%=      5-min Rain = 0
KDC1 180950Z 09002KT 02/M02 A3005 RMK A01 T00231019  RH  074%=      5-min Rain = 0
KDC1 180951Z 10003KT 02/M02 A3005 RMK A01 T00231019  RH  074%=      5-min Rain = 0
KDC1 180952Z 10004KT 02/M02 A3005 RMK A01 T00241020  RH  073%=      5-min Rain = 0
KDC1 180953Z 10004KT 03/M02 A3005 RMK A01 T00261019  RH  072%=      5-min Rain = 0
KDC1 180954Z 10004KT 03/M02 A3005 RMK A01 T00261019  RH  072%=      5-min Rain = 0
KDC1 180955Z 09003KT 03/M02 A3004 RMK A01 T00281018  RH  072%=      5-min Rain = 0
KDC1 180956Z 08003KT 03/M02 A3004 RMK A01 T00291018  RH  071%=      5-min Rain = 0
KDC1 180957Z 06003KT 03/M02 A3004 RMK A01 T00291018  RH  071%=      5-min Rain = 0
KDC1 180958Z 06004KT 03/M02 A3004 RMK A01 T00291017  RH  072%=      5-min Rain = 0
KDC1 180959Z 06004KT 03/M02 A3004 RMK A01 T00291017  RH  071%=      5-min Rain = 0
KDC1 181000Z 05004KT 03/M02 A3005 RMK A01 T00291018  RH  071%=      5-min Rain = 0
KDC1 181001Z 03004KT 03/M02 A3005 RMK A01 T00301019  RH  071%=      5-min Rain = 0
KDC1 181002Z 03005KT 03/M02 A3005 RMK A01 T00291019  RH  071%=      5-min Rain = 0
KDC1 181003Z 02007KT 03/M02 A3005 RMK A01 T00281019  RH  071%=      5-min Rain = 0
KDC1 181004Z 02009KT 03/M02 A3005 RMK A01 T00271018  RH  072%=      5-min Rain = 0
KDC1 181005Z 02008KT 03/M02 A3005 RMK A01 T00261017  RH  073%=      5-min Rain = 0
KDC1 181006Z 01009KT 03/M02 A3005 RMK A01 T00261017  RH  074%=      5-min Rain = 0
KDC1 181007Z 02009KT 03/M02 A3005 RMK A01 T00261017  RH  073%=      5-min Rain = 0
KDC1 181008Z 03008KT 03/M02 A3005 RMK A01 T00261018  RH  073%=      5-min Rain = 0
KDC1 181009Z 01006KT 03/M02 A3005 RMK A01 T00261018  RH  073%=      5-min Rain = 0
KDC1 181010Z 03005KT 03/M02 A3005 RMK A01 T00271017  RH  073%=      5-min Rain = 0
KDC1 181011Z 01004KT 03/M02 A3005 RMK A01 T00271018  RH  072%=      5-min Rain = 0
KDC1 181012Z 02004KT 03/M02 A3005 RMK A01 T00281018  RH  072%=      5-min Rain = 0
KDC1 181013Z 02004KT 03/M02 A3005 RMK A01 T00291018  RH  071%=      5-min Rain = 0
KDC1 181014Z 03004KT 03/M02 A3005 RMK A01 T00301018  RH  071%=      5-min Rain = 0
KDC1 181015Z 03003KT 03/M02 A3005 RMK A01 T00301017  RH  071%=      5-min Rain = 0
KDC1 181016Z 04003KT 03/M02 A3005 RMK A01 T00311017  RH  071%=      5-min Rain = 0
KDC1 181017Z 04002KT 03/M02 A3005 RMK A01 T00311017  RH  071%=      5-min Rain = 0
KDC1 181018Z 03000KT 03/M02 A3005 RMK A01 T00321017  RH  070%=      5-min Rain = 0
KDC1 181019Z 03002KT 03/M02 A3005 RMK A01 T00321017  RH  070%=      5-min Rain = 0
KDC1 181020Z 02002KT 03/M02 A3005 RMK A01 T00321017  RH  070%=      5-min Rain = 0
KDC1 181021Z 02002KT 03/M02 A3005 RMK A01 T00331017  RH  070%=      5-min Rain = 0
KDC1 181022Z 03002KT 03/M02 A3005 RMK A01 T00331016  RH  070%=      5-min Rain = 0
KDC1 181023Z 04001KT 03/M02 A3005 RMK A01 T00331015  RH  070%=      5-min Rain = 0
KDC1 181024Z 03001KT 03/M02 A3005 RMK A01 T00331016  RH  071%=      5-min Rain = 0
KDC1 181025Z 06001KT 03/M02 A3005 RMK A01 T00331015  RH  071%=      5-min Rain = 0
KDC1 181026Z 06001KT 03/M02 A3005 RMK A01 T00331015  RH  071%=      5-min Rain = 0
KDC1 181027Z 06003KT 03/M02 A3005 RMK A01 T00321015  RH  071%=      5-min Rain = 0
KDC1 181028Z 05002KT 03/M02 A3005 RMK A01 T00331015  RH  071%=      5-min Rain = 0
KDC1 181029Z 04002KT 03/M02 A3005 RMK A01 T00331015  RH  071%=      5-min Rain = 0
KDC1 181030Z 04002KT 03/M02 A3005 RMK A01 T00331015  RH  071%=      5-min Rain = 0
KDC1 181031Z 03002KT 03/M02 A3005 RMK A01 T00331015  RH  071%=      5-min Rain = 0
KDC1 181032Z 03002KT 03/M01 A3005 RMK A01 T00331014  RH  071%=      5-min Rain = 0
KDC1 181033Z 04001KT 03/M01 A3005 RMK A01 T00331014  RH  071%=      5-min Rain = 0
KDC1 181034Z 02001KT 03/M01 A3005 RMK A01 T00331014  RH  072%=      5-min Rain = 0
KDC1 181035Z 00001KT 03/M01 A3005 RMK A01 T00321014  RH  072%=      5-min Rain = 0
KDC1 181036Z 04001KT 03/M01 A3005 RMK A01 T00321014  RH  072%=      5-min Rain = 0
KDC1 181037Z 35001KT 03/M01 A3005 RMK A01 T00321014  RH  072%=      5-min Rain = 0
KDC1 181038Z 36002KT 03/M01 A3005 RMK A01 T00311013  RH  072%=      5-min Rain = 0
KDC1 181039Z 34002KT 03/M01 A3005 RMK A01 T00321013  RH  072%=      5-min Rain = 0
KDC1 181040Z 35003KT 03/M01 A3005 RMK A01 T00321013  RH  072%=      5-min Rain = 0
KDC1 181041Z 36003KT 03/M01 A3004 RMK A01 T00321012  RH  073%=      5-min Rain = 0
KDC1 181042Z 35003KT 03/M01 A3004 RMK A01 T00321012  RH  073%=      5-min Rain = 0
KDC1 181043Z 01002KT 03/M01 A3004 RMK A01 T00321013  RH  072%=      5-min Rain = 0
KDC1 181044Z 36002KT 03/M01 A3004 RMK A01 T00321014  RH  072%=      5-min Rain = 0
KDC1 181045Z 00003KT 03/M01 A3004 RMK A01 T00321013  RH  072%=      5-min Rain = 0
KDC1 181046Z 01003KT 03/M01 A3004 RMK A01 T00311014  RH  072%=      5-min Rain = 0
KDC1 181047Z 00002KT 03/M01 A3004 RMK A01 T00321014  RH  072%=      5-min Rain = 0
KDC1 181048Z 02002KT 03/M01 A3004 RMK A01 T00311014  RH  072%=      5-min Rain = 0
KDC1 181049Z 02003KT 03/M01 A3004 RMK A01 T00311014  RH  072%=      5-min Rain = 0
KDC1 181050Z 02002KT 03/M01 A3004 RMK A01 T00311014  RH  072%=      5-min Rain = 0
KDC1 181051Z 03002KT 03/M01 A3004 RMK A01 T00311014  RH  072%=      5-min Rain = 0
KDC1 181052Z 03002KT 03/M02 A3003 RMK A01 T00311015  RH  072%=      5-min Rain = 0
KDC1 181053Z 02002KT 03/M01 A3003 RMK A01 T00311014  RH  072%=      5-min Rain = 0
KDC1 181054Z 01003KT 03/M01 A3003 RMK A01 T00311014  RH  072%=      5-min Rain = 0
KDC1 181055Z 02002KT 03/M02 A3003 RMK A01 T00311015  RH  072%=      5-min Rain = 0
KDC1 181056Z 01003KT 03/M02 A3003 RMK A01 T00321015  RH  072%=      5-min Rain = 0
KDC1 181057Z 36003KT 03/M01 A3003 RMK A01 T00321014  RH  072%=      5-min Rain = 0
KDC1 181058Z 35003KT 03/M01 A3003 RMK A01 T00321014  RH  072%=      5-min Rain = 0
KDC1 181059Z 36003KT 03/M01 A3003 RMK A01 T00321014  RH  072%=      5-min Rain = 0
KDC1 181100Z 01002KT 03/M01 A3003 RMK A01 T00321014  RH  072%=      5-min Rain = 0
KDC1 181101Z 01002KT 03/M01 A3003 RMK A01 T00331014  RH  072%=      5-min Rain = 0
KDC1 181102Z 01002KT 03/M01 A3003 RMK A01 T00321014  RH  072%=      5-min Rain = 0
KDC1 181103Z 02001KT 03/M01 A3003 RMK A01 T00321013  RH  072%=      5-min Rain = 0
KDC1 181104Z 02001KT 03/M01 A3003 RMK A01 T00331013  RH  072%=      5-min Rain = 0
KDC1 181105Z 01001KT 03/M01 A3003 RMK A01 T00331012  RH  072%=      5-min Rain = 0
KDC1 181106Z 02002KT 03/M01 A3003 RMK A01 T00331012  RH  072%=      5-min Rain = 0
KDC1 181107Z 02002KT 03/M01 A3003 RMK A01 T00321013  RH  072%=      5-min Rain = 0
KDC1 181108Z 36001KT 03/M01 A3003 RMK A01 T00331013  RH  072%=      5-min Rain = 0
KDC1 181109Z 02001KT 03/M01 A3003 RMK A01 T00321013  RH  072%=      5-min Rain = 0
KDC1 181110Z 35001KT 03/M01 A3003 RMK A01 T00331012  RH  072%=      5-min Rain = 0
KDC1 181111Z 34002KT 03/M01 A3003 RMK A01 T00331012  RH  072%=      5-min Rain = 0
KDC1 181112Z 36003KT 03/M01 A3003 RMK A01 T00331012  RH  072%=      5-min Rain = 0
KDC1 181113Z 01004KT 03/M01 A3003 RMK A01 T00331012  RH  072%=      5-min Rain = 0
KDC1 181114Z 01004KT 03/M01 A3003 RMK A01 T00331011  RH  073%=      5-min Rain = 0
KDC1 181115Z 00006KT 03/M01 A3003 RMK A01 T00341011  RH  073%=      5-min Rain = 0
KDC1 181116Z 00006KT 03/M01 A3003 RMK A01 T00331011  RH  073%=      5-min Rain = 0
KDC1 181117Z 00004KT 03/M01 A3003 RMK A01 T00321010  RH  074%=      5-min Rain = 0
KDC1 181118Z 00003KT 03/M01 A3003 RMK A01 T00321010  RH  074%=      5-min Rain = 0
KDC1 181119Z 00003KT 03/M01 A3003 RMK A01 T00331010  RH  074%=      5-min Rain = 0
KDC1 181120Z 34002KT 03/M01 A3003 RMK A01 T00331010  RH  074%=      5-min Rain = 0
KDC1 181121Z 31001KT 03/M01 A3002 RMK A01 T00341009  RH  073%=      5-min Rain = 0
KDC1 181122Z 01001KT 03/M01 A3002 RMK A01 T00341010  RH  073%=      5-min Rain = 0
KDC1 181123Z 24001KT 03/M01 A3002 RMK A01 T00341009  RH  073%=      5-min Rain = 0
KDC1 181124Z 26000KT 03/M01 A3002 RMK A01 T00341009  RH  073%=      5-min Rain = 0
KDC1 181125Z 25001KT 04/M01 A3002 RMK A01 T00351008  RH  073%=      5-min Rain = 0
KDC1 181126Z 21002KT 04/M01 A3002 RMK A01 T00361008  RH  073%=      5-min Rain = 0
KDC1 181127Z 22003KT 04/M01 A3001 RMK A01 T00381006  RH  073%=      5-min Rain = 0
KDC1 181128Z 22004KT 04/M00 A3001 RMK A01 T00411003  RH  073%=      5-min Rain = 0
KDC1 181129Z 20005KT 05/M00 A3001 RMK A01 T00451001  RH  072%=      5-min Rain = 0
KDC1 181130Z 23003KT 05/M01 A3001 RMK A01 T00461005  RH  070%=      5-min Rain = 0
KDC1 181131Z 24005KT 04/M01 A3001 RMK A01 T00441005  RH  070%=      5-min Rain = 0
KDC1 181132Z 23004KT 05/00 A3001 RMK A01 T00470002  RH  072%=      5-min Rain = 0
KDC1 181133Z 23005KT 06/01 A3001 RMK A01 T00560010  RH  073%=      5-min Rain = 0
KDC1 181134Z 24005KT 06/01 A3001 RMK A01 T00640011  RH  069%=      5-min Rain = 0
KDC1 181135Z 24005KT 07/01 A3001 RMK A01 T00680012  RH  067%=      5-min Rain = 0
KDC1 181136Z 25004KT 07/01 A3001 RMK A01 T00730012  RH  066%=      5-min Rain = 0
KDC1 181137Z 23002KT 07/01 A3001 RMK A01 T00740012  RH  064%=      5-min Rain = 0
KDC1 181138Z 24002KT 08/01 A3001 RMK A01 T00750011  RH  064%=      5-min Rain = 0
KDC1 181139Z 24004KT 08/01 A3001 RMK A01 T00760011  RH  063%=      5-min Rain = 0
KDC1 181140Z 27003KT 08/01 A3002 RMK A01 T00760010  RH  063%=      5-min Rain = 0
KDC1 181141Z 28004KT 08/01 A3002 RMK A01 T00750009  RH  063%=      5-min Rain = 0
KDC1 181142Z 28004KT 07/01 A3002 RMK A01 T00720009  RH  064%=      5-min Rain = 0
KDC1 181143Z 27006KT 07/01 A3002 RMK A01 T00720010  RH  065%=      5-min Rain = 0
KDC1 181144Z 29006KT 07/01 A3002 RMK A01 T00710012  RH  066%=      5-min Rain = 0
KDC1 181145Z 31005KT 07/01 A3002 RMK A01 T00680008  RH  066%=      5-min Rain = 0
KDC1 181146Z 29005KT 06/00 A3002 RMK A01 T00640004  RH  065%=      5-min Rain = 0
KDC1 181147Z 29006KT 06/00 A3002 RMK A01 T00610002  RH  065%=      5-min Rain = 0
KDC1 181148Z 28006KT 06/M00 A3002 RMK A01 T00571002  RH  066%=      5-min Rain = 0
KDC1 181149Z 27008KT 05/M00 A3002 RMK A01 T00541001  RH  068%=      5-min Rain = 0
KDC1 181150Z 26008KT 05/01 A3002 RMK A01 T00540007  RH  071%=      5-min Rain = 0
KDC1 181151Z 27009KT 06/01 A3002 RMK A01 T00610011  RH  071%=      5-min Rain = 0
KDC1 181152Z 26008KT 07/01 A3002 RMK A01 T00650013  RH  069%=      5-min Rain = 0
KDC1 181153Z 25010KT 07/02 A3002 RMK A01 T00700016  RH  068%=      5-min Rain = 0
KDC1 181154Z 25012KT 08/02 A3001 RMK A01 T00780018  RH  066%=      5-min Rain = 0
KDC1 181155Z 25012KT 09/02 A3001 RMK A01 T00870018  RH  062%=      5-min Rain = 0
KDC1 181156Z 25013KT 09/02 A3001 RMK A01 T00940016  RH  058%=      5-min Rain = 0
KDC1 181157Z 25012KT 10/02 A3001 RMK A01 T00970016  RH  057%=      5-min Rain = 0
KDC1 181158Z 24012KT 10/02 A3001 RMK A01 T00970015  RH  057%=      5-min Rain = 0
KDC1 181159Z 25011KT 10/02 A3001 RMK A01 T00960015  RH  057%=      5-min Rain = 0
KDC1 181200Z 25011KT 10/02 A3001 RMK A01 T00950015  RH  058%=      5-min Rain = 0
KDC1 181201Z 25012KT 09/01 A3001 RMK A01 T00940014  RH  058%=      5-min Rain = 0
KDC1 181202Z 25013KT 10/02 A3001 RMK A01 T00960015  RH  057%=      5-min Rain = 0
KDC1 181203Z 25012KT 10/02 A3001 RMK A01 T01000015  RH  055%=      5-min Rain = 0
KDC1 181204Z 24011KT 10/02 A3001 RMK A01 T01030015  RH  054%=      5-min Rain = 0
KDC1 181205Z 24010KT 10/01 A3001 RMK A01 T01020014  RH  054%=      5-min Rain = 0
KDC1 181206Z 24011KT 10/01 A3001 RMK A01 T01010014  RH  055%=      5-min Rain = 0
KDC1 181207Z 25010KT 10/01 A3001 RMK A01 T01000014  RH  055%=      5-min Rain = 0
KDC1 181208Z 25011KT 10/01 A3001 RMK A01 T00990014  RH  055%=      5-min Rain = 0
KDC1 181209Z 25010KT 10/01 A3001 RMK A01 T01000014  RH  055%=      5-min Rain = 0
KDC1 181210Z 24010KT 10/01 A3001 RMK A01 T00990014  RH  055%=      5-min Rain = 0
KDC1 181211Z 25009KT 10/01 A3001 RMK A01 T00970014  RH  056%=      5-min Rain = 0
KDC1 181212Z 25010KT 10/01 A3001 RMK A01 T00960014  RH  056%=      5-min Rain = 0
KDC1 181213Z 26010KT 10/01 A3001 RMK A01 T00950013  RH  057%=      5-min Rain = 0
KDC1 181214Z 25010KT 09/01 A3001 RMK A01 T00940013  RH  057%=      5-min Rain = 0
KDC1 181215Z 25009KT 09/01 A3001 RMK A01 T00940013  RH  057%=      5-min Rain = 0
KDC1 181216Z 25008KT 09/01 A3001 RMK A01 T00940012  RH  057%=      5-min Rain = 0
KDC1 181217Z 25008KT 09/01 A3001 RMK A01 T00940011  RH  056%=      5-min Rain = 0
KDC1 181218Z 25007KT 09/01 A3001 RMK A01 T00940011  RH  056%=      5-min Rain = 0
KDC1 181219Z 26007KT 09/01 A3001 RMK A01 T00910010  RH  057%=      5-min Rain = 0
KDC1 181220Z 26006KT 09/01 A3001 RMK A01 T00870010  RH  058%=      5-min Rain = 0
KDC1 181221Z 26006KT 08/01 A3001 RMK A01 T00840010  RH  059%=      5-min Rain = 0
KDC1 181222Z 25007KT 08/01 A3001 RMK A01 T00830010  RH  060%=      5-min Rain = 0
KDC1 181223Z 25007KT 09/01 A3001 RMK A01 T00850011  RH  060%=      5-min Rain = 0
KDC1 181224Z 24007KT 09/01 A30 RMK A01 T00890012  RH  058%=      5-min Rain = 0
KDC1 181225Z 25008KT 09/01 A3001 RMK A01 T00900011  RH  058%=      5-min Rain = 0
KDC1 181226Z 25008KT 09/01 A30 RMK A01 T00910010  RH  057%=      5-min Rain = 0
KDC1 181227Z 25008KT 09/01 A30 RMK A01 T00940009  RH  055%=      5-min Rain = 0
KDC1 181228Z 25008KT 10/01 A30 RMK A01 T00980009  RH  054%=      5-min Rain = 0
KDC1 181229Z 25009KT 10/01 A30 RMK A01 T00990008  RH  053%=      5-min Rain = 0
KDC1 181230Z 24008KT 10/01 A30 RMK A01 T01000008  RH  053%=      5-min Rain = 0
KDC1 181231Z 24009G14KT 10/01 A30 RMK A01 T01000008  RH  053%=      5-min Rain = 0
KDC1 181232Z 24010KT 10/01 A30 RMK A01 T01020008  RH  052%=      5-min Rain = 0
KDC1 181233Z 25013KT 10/01 A30 RMK A01 T01040007  RH  051%=      5-min Rain = 0
KDC1 181234Z 24010KT 11/01 A2999 RMK A01 T01090007  RH  049%=      5-min Rain = 0
KDC1 181235Z 25011KT 11/01 A2999 RMK A01 T01110006  RH  048%=      5-min Rain = 0
KDC1 181236Z 24011KT 11/01 A2999 RMK A01 T01120006  RH  048%=      5-min Rain = 0
KDC1 181237Z 24011KT 11/01 A2999 RMK A01 T01130005  RH  048%=      5-min Rain = 0
KDC1 181238Z 24009KT 11/01 A2999 RMK A01 T01140005  RH  047%=      5-min Rain = 0
KDC1 181239Z 24008G13KT 11/01 A2999 RMK A01 T01120007  RH  048%=      5-min Rain = 0
KDC1 181240Z 24011KT 11/01 A2999 RMK A01 T01080007  RH  050%=      5-min Rain = 0
KDC1 181241Z 24011KT 11/01 A2999 RMK A01 T01050007  RH  051%=      5-min Rain = 0
KDC1 181242Z 23009KT 10/01 A2999 RMK A01 T01020007  RH  052%=      5-min Rain = 0
KDC1 181243Z 23010KT 10/01 A2999 RMK A01 T01000008  RH  053%=      5-min Rain = 0
KDC1 181244Z 23009KT 10/01 A2999 RMK A01 T00990010  RH  054%=      5-min Rain = 0
KDC1 181245Z 24006KT 10/01 A30 RMK A01 T00950010  RH  055%=      5-min Rain = 0
KDC1 181246Z 23007KT 09/01 A30 RMK A01 T00900010  RH  057%=      5-min Rain = 0
KDC1 181247Z 23007KT 09/01 A2999 RMK A01 T00860010  RH  059%=      5-min Rain = 0
KDC1 181248Z 23009KT 08/01 A2999 RMK A01 T00840010  RH  060%=      5-min Rain = 0
KDC1 181249Z 23008KT 08/01 A2999 RMK A01 T00820011  RH  061%=      5-min Rain = 0
KDC1 181250Z 23007KT 08/01 A2999 RMK A01 T00810011  RH  061%=      5-min Rain = 0
KDC1 181251Z 23006KT 08/01 A2999 RMK A01 T00800010  RH  062%=      5-min Rain = 0
KDC1 181252Z 24006KT 08/01 A2999 RMK A01 T00790010  RH  062%=      5-min Rain = 0
KDC1 181253Z 22006KT 08/01 A2999 RMK A01 T00790010  RH  062%=      5-min Rain = 0
KDC1 181254Z 23007KT 08/01 A2999 RMK A01 T00790010  RH  062%=      5-min Rain = 0
KDC1 181255Z 23005KT 08/01 A2999 RMK A01 T00790010  RH  062%=      5-min Rain = 0
KDC1 181256Z 23007KT 08/01 A2999 RMK A01 T00790010  RH  062%=      5-min Rain = 0
KDC1 181257Z 24005KT 08/01 A2999 RMK A01 T00790010  RH  061%=      5-min Rain = 0
KDC1 181258Z 23004KT 08/01 A2999 RMK A01 T00790010  RH  062%=      5-min Rain = 0
KDC1 181259Z 25006KT 08/01 A2999 RMK A01 T00780010  RH  062%=      5-min Rain = 0
KDC1 181300Z 23005KT 08/01 A2999 RMK A01 T00760011  RH  063%=      5-min Rain = 0
KDC1 181301Z 23004KT 07/01 A2999 RMK A01 T00740011  RH  064%=      5-min Rain = 0
KDC1 181302Z 25005KT 07/01 A30 RMK A01 T00720010  RH  065%=      5-min Rain = 0
KDC1 181303Z 26005KT 07/01 A30 RMK A01 T00710011  RH  065%=      5-min Rain = 0
KDC1 181304Z 27007KT 07/01 A30 RMK A01 T00700011  RH  066%=      5-min Rain = 0
KDC1 181305Z 26007KT 07/01 A30 RMK A01 T00670010  RH  067%=      5-min Rain = 0
KDC1 181306Z 25005KT 06/01 A30 RMK A01 T00640010  RH  068%=      5-min Rain = 0
KDC1 181307Z 26005KT 06/01 A30 RMK A01 T00630011  RH  069%=      5-min Rain = 0
KDC1 181308Z 25004KT 06/01 A30 RMK A01 T00630011  RH  069%=      5-min Rain = 0
KDC1 181309Z 24005KT 06/01 A30 RMK A01 T00640012  RH  070%=      5-min Rain = 0
KDC1 181310Z 23002KT 06/01 A30 RMK A01 T00640012  RH  069%=      5-min Rain = 0
KDC1 181311Z 27002KT 07/01 A3001 RMK A01 T00650012  RH  069%=      5-min Rain = 0
KDC1 181312Z 31003KT 07/01 A3001 RMK A01 T00650012  RH  069%=      5-min Rain = 0
KDC1 181313Z 01004KT 06/01 A3001 RMK A01 T00630008  RH  068%=      5-min Rain = 0
KDC1 181314Z 03003KT 06/01 A3001 RMK A01 T00600005  RH  068%=      5-min Rain = 0
KDC1 181315Z 02003KT 06/01 A3001 RMK A01 T00590006  RH  068%=      5-min Rain = 0
KDC1 181316Z 02004KT 06/01 A3001 RMK A01 T00580005  RH  069%=      5-min Rain = 0
KDC1 181317Z 01004KT 06/01 A3001 RMK A01 T00560005  RH  070%=      5-min Rain = 0
KDC1 181318Z 35004KT 06/01 A3002 RMK A01 T00560006  RH  070%=      5-min Rain = 0
KDC1 181319Z 35004KT 06/01 A3002 RMK A01 T00590009  RH  070%=      5-min Rain = 0
KDC1 181320Z 34005KT 06/01 A3002 RMK A01 T00620010  RH  069%=      5-min Rain = 0
KDC1 181321Z 33004KT 07/01 A3002 RMK A01 T00650011  RH  068%=      5-min Rain = 0
KDC1 181322Z 32005KT 07/01 A3002 RMK A01 T00670011  RH  067%=      5-min Rain = 0
KDC1 181323Z 32004KT 07/01 A3003 RMK A01 T00700011  RH  066%=      5-min Rain = 0
KDC1 181324Z 31004KT 07/01 A3003 RMK A01 T00710009  RH  065%=      5-min Rain = 0
KDC1 181325Z 30003KT 07/01 A3003 RMK A01 T00690008  RH  065%=      5-min Rain = 0
KDC1 181326Z 30001KT 07/01 A3003 RMK A01 T00690009  RH  066%=      5-min Rain = 0
KDC1 181327Z 30001KT 07/01 A3003 RMK A01 T00690008  RH  065%=      5-min Rain = 0
KDC1 181328Z 29000KT 07/01 A3003 RMK A01 T00690008  RH  065%=      5-min Rain = 0
KDC1 181329Z 28000KT 07/01 A3003 RMK A01 T00680007  RH  065%=      5-min Rain = 0
KDC1 181330Z 00000KT 07/01 A3003 RMK A01 T00660007  RH  066%=      5-min Rain = 0
KDC1 181331Z 18001KT 07/01 A3003 RMK A01 T00650008  RH  067%=      5-min Rain = 0
KDC1 181332Z 19000KT 07/01 A3003 RMK A01 T00660009  RH  067%=      5-min Rain = 0
KDC1 181333Z 17001KT 07/01 A3003 RMK A01 T00670010  RH  067%=      5-min Rain = 0
KDC1 181334Z 17002KT 07/01 A3003 RMK A01 T00670009  RH  067%=      5-min Rain = 0
KDC1 181335Z 17003KT 07/01 A3002 RMK A01 T00660008  RH  066%=      5-min Rain = 0
KDC1 181336Z 17003KT 06/01 A3002 RMK A01 T00630006  RH  067%=      5-min Rain = 0
KDC1 181337Z 18003KT 06/00 A3002 RMK A01 T00590004  RH  068%=      5-min Rain = 0
KDC1 181338Z 18003KT 06/00 A3002 RMK A01 T00560004  RH  069%=      5-min Rain = 0
KDC1 181339Z 18002KT 06/01 A3002 RMK A01 T00560008  RH  071%=      5-min Rain = 0
KDC1 181340Z 19001KT 06/01 A3002 RMK A01 T00580009  RH  071%=      5-min Rain = 0
KDC1 181341Z 21001KT 05/00 A3003 RMK A01 T00530000  RH  069%=      5-min Rain = 0
KDC1 181342Z 17002KT 05/00 A3003 RMK A01 T00510004  RH  072%=      5-min Rain = 0
KDC1 181343Z 18001KT 05/00 A3003 RMK A01 T00500002  RH  071%=      5-min Rain = 0
KDC1 181344Z 27002KT 05/M00 A3003 RMK A01 T00461003  RH  071%=      5-min Rain = 0
KDC1 181345Z 15002KT 04/M01 A3003 RMK A01 T00391008  RH  072%=      5-min Rain = 0
KDC1 181346Z 18001KT 04/M01 A3003 RMK A01 T00361007  RH  074%=      5-min Rain = 0
KDC1 181347Z 24000KT 03/M01 A3003 RMK A01 T00331007  RH  075%=      5-min Rain = 0
KDC1 181348Z 29000KT 03/M00 A3003 RMK A01 T00331004  RH  077%=      5-min Rain = 0
KDC1 181349Z 30002KT 03/M01 A3003 RMK A01 T00321006  RH  076%=      5-min Rain = 0
KDC1 181350Z 28000KT 03/M01 A3003 RMK A01 T00301008  RH  077%=      5-min Rain = 0
KDC1 181351Z 32002KT 03/M01 A3003 RMK A01 T00281008  RH  077%=      5-min Rain = 0
KDC1 181352Z 31001KT 03/M01 A3003 RMK A01 T00261009  RH  078%=      5-min Rain = 0
KDC1 181353Z 32001KT 02/M01 A3003 RMK A01 T00241009  RH  079%=      5-min Rain = 0
KDC1 181354Z 32003KT 02/M01 A3003 RMK A01 T00221010  RH  079%=      5-min Rain = 0
KDC1 181355Z 32000KT 02/M01 A3003 RMK A01 T00211010  RH  080%=      5-min Rain = 0
KDC1 181356Z 16000KT 02/M01 A3004 RMK A01 T00201009  RH  081%=      5-min Rain = 0
KDC1 181357Z 30001KT 02/M01 A3004 RMK A01 T00211007  RH  082%=      5-min Rain = 0
KDC1 181358Z 31002KT 02/M01 A3004 RMK A01 T00211007  RH  082%=      5-min Rain = 0
KDC1 181359Z 35005KT 02/M01 A3004 RMK A01 T00221008  RH  081%=      5-min Rain = 0
KDC1 181400Z 00004KT 02/M01 A3004 RMK A01 T00221007  RH  081%=      5-min Rain = 0
KDC1 181401Z 02001KT 02/M01 A3004 RMK A01 T00211008  RH  081%=      5-min Rain = 0
KDC1 181402Z 33001KT 02/M01 A3004 RMK A01 T00211008  RH  081%=      5-min Rain = 0
KDC1 181403Z 33001KT 02/M01 A3004 RMK A01 T00201009  RH  081%=      5-min Rain = 0
KDC1 181404Z 34001KT 02/M01 A3004 RMK A01 T00201008  RH  082%=      5-min Rain = 0
KDC1 181405Z 30003KT 02/M01 A3005 RMK A01 T00201008  RH  082%=      5-min Rain = 0
KDC1 181406Z 33003KT 02/M01 A3005 RMK A01 T00201008  RH  082%=      5-min Rain = 0
KDC1 181407Z 34002KT 02/M01 A3005 RMK A01 T00191008  RH  082%=      5-min Rain = 0
KDC1 181408Z 34003KT 02/M01 A3005 RMK A01 T00191008  RH  082%=      5-min Rain = 0
KDC1 181409Z 36002KT 02/M01 A3005 RMK A01 T00181009  RH  082%=      5-min Rain = 0
KDC1 181410Z 34001KT 02/M01 A3005 RMK A01 T00181010  RH  082%=      5-min Rain = 0
KDC1 181411Z 03001KT 02/M01 A3004 RMK A01 T00171010  RH  082%=      5-min Rain = 0
KDC1 181412Z 07000KT 02/M01 A3004 RMK A01 T00181009  RH  083%=      5-min Rain = 0
KDC1 181413Z 33000KT 02/M01 A3005 RMK A01 T00181009  RH  083%=      5-min Rain = 0
KDC1 181414Z 34003KT 02/M01 A3005 RMK A01 T00181009  RH  082%=      5-min Rain = 0
KDC1 181415Z 33002KT 02/M01 A3005 RMK A01 T00191009  RH  082%=      5-min Rain = 0
KDC1 181416Z 35001KT 02/M01 A3005 RMK A01 T00201007  RH  082%=      5-min Rain = 0
KDC1 181417Z 01001KT 02/M01 A3005 RMK A01 T00201009  RH  081%=      5-min Rain = 0
KDC1 181418Z 01002KT 02/M01 A3005 RMK A01 T00201009  RH  081%=      5-min Rain = 0
KDC1 181419Z 36001KT 02/M01 A3005 RMK A01 T00191010  RH  081%=      5-min Rain = 0
KDC1 181420Z 03001KT 02/M01 A3005 RMK A01 T00191009  RH  082%=      5-min Rain = 0
KDC1 181421Z 02000KT 02/M01 A3005 RMK A01 T00201008  RH  082%=      5-min Rain = 0
KDC1 181422Z 09000KT 02/M01 A3005 RMK A01 T00201008  RH  082%=      5-min Rain = 0
KDC1 181423Z 10001KT 02/M01 A3005 RMK A01 T00221005  RH  082%=      5-min Rain = 0
KDC1 181424Z 11000KT 02/M00 A3005 RMK A01 T00241004  RH  082%=      5-min Rain = 0
KDC1 181425Z 14001KT 03/M00 A3005 RMK A01 T00261003  RH  081%=      5-min Rain = 0
KDC1 181426Z 12002KT 03/M00 A3004 RMK A01 T00281002  RH  081%=      5-min Rain = 0
KDC1 181427Z 12002KT 03/00 A3004 RMK A01 T00320001  RH  080%=      5-min Rain = 0
KDC1 181428Z 12002KT 03/00 A3004 RMK A01 T00340001  RH  079%=      5-min Rain = 0
KDC1 181429Z 11000KT 04/M00 A3005 RMK A01 T00351001  RH  077%=      5-min Rain = 0
KDC1 181430Z 12001KT 04/M00 A3005 RMK A01 T00351003  RH  076%=      5-min Rain = 0
KDC1 181431Z 12004KT 03/M00 A3004 RMK A01 T00341004  RH  076%=      5-min Rain = 0
KDC1 181432Z 11004KT 04/M00 A3004 RMK A01 T00351003  RH  076%=      5-min Rain = 0
KDC1 181433Z 11004KT 04/M00 A3005 RMK A01 T00361003  RH  076%=      5-min Rain = 0
KDC1 181434Z 12002KT 04/M00 A3005 RMK A01 T00371002  RH  076%=      5-min Rain = 0
KDC1 181435Z 11003KT 04/00 A3005 RMK A01 T00390001  RH  076%=      5-min Rain = 0
KDC1 181436Z 11003KT 04/00 A3005 RMK A01 T00420004  RH  076%=      5-min Rain = 0
KDC1 181437Z 11002KT 05/00 A3005 RMK A01 T00450004  RH  075%=      5-min Rain = 0
KDC1 181438Z 11003KT 05/00 A3005 RMK A01 T00460004  RH  074%=      5-min Rain = 0
KDC1 181439Z 11002KT 05/01 A3005 RMK A01 T00490006  RH  074%=      5-min Rain = 0
KDC1 181440Z 13001KT 05/01 A3005 RMK A01 T00510005  RH  073%=      5-min Rain = 0
KDC1 181441Z 12002KT 05/01 A3005 RMK A01 T00530008  RH  073%=      5-min Rain = 0
KDC1 181442Z 14002KT 06/01 A3005 RMK A01 T00560009  RH  072%=      5-min Rain = 0
KDC1 181443Z 14003KT 06/01 A3005 RMK A01 T00570008  RH  071%=      5-min Rain = 0
KDC1 181444Z 14002KT 06/01 A3005 RMK A01 T00580008  RH  070%=      5-min Rain = 0
KDC1 181445Z 15002KT 06/01 A3005 RMK A01 T00590008  RH  070%=      5-min Rain = 0
KDC1 181446Z 17002KT 06/01 A3005 RMK A01 T00600009  RH  070%=      5-min Rain = 0
KDC1 181447Z 18003KT 06/01 A3005 RMK A01 T00620010  RH  069%=      5-min Rain = 0
KDC1 181448Z 20003KT 07/01 A3005 RMK A01 T00650011  RH  068%=      5-min Rain = 0
KDC1 181449Z 19003KT 07/01 A3005 RMK A01 T00670011  RH  068%=      5-min Rain = 0
KDC1 181450Z 19003KT 07/01 A3005 RMK A01 T00670011  RH  067%=      5-min Rain = 0
KDC1 181451Z 21001KT 07/01 A3005 RMK A01 T00690011  RH  067%=      5-min Rain = 0
KDC1 181452Z 22001KT 07/01 A3005 RMK A01 T00710012  RH  066%=      5-min Rain = 0
KDC1 181453Z 19001KT 07/01 A3005 RMK A01 T00730012  RH  065%=      5-min Rain = 0
KDC1 181454Z 18001KT 08/02 A3005 RMK A01 T00750015  RH  066%=      5-min Rain = 0
KDC1 181455Z 17000KT 08/02 A3005 RMK A01 T00750015  RH  066%=      5-min Rain = 0
KDC1 181456Z 18002KT 08/01 A3005 RMK A01 T00760014  RH  065%=      5-min Rain = 0
KDC1 181457Z 16002KT 08/02 A3005 RMK A01 T00770016  RH  065%=      5-min Rain = 0
KDC1 181458Z 14002KT 08/02 A3005 RMK A01 T00770016  RH  066%=      5-min Rain = 0
KDC1 181459Z 13003KT 08/02 A3005 RMK A01 T00770017  RH  066%=      5-min Rain = 0
KDC1 181500Z 13004KT 08/02 A3005 RMK A01 T00770017  RH  066%=      5-min Rain = 0
KDC1 181501Z 12003KT 08/02 A3005 RMK A01 T00780017  RH  066%=      5-min Rain = 0
KDC1 181502Z 10003KT 08/02 A3005 RMK A01 T00770017  RH  066%=      5-min Rain = 0
KDC1 181503Z 06004KT 08/02 A3006 RMK A01 T00760016  RH  066%=      5-min Rain = 0
KDC1 181504Z 03007KT 07/02 A3006 RMK A01 T00740015  RH  066%=      5-min Rain = 0
KDC1 181505Z 03005KT 07/01 A3006 RMK A01 T00700012  RH  066%=      5-min Rain = 0
KDC1 181506Z 04005KT 07/01 A3006 RMK A01 T00670012  RH  068%=      5-min Rain = 0
KDC1 181507Z 04004KT 07/01 A3006 RMK A01 T00670011  RH  068%=      5-min Rain = 0
KDC1 181508Z 04004KT 07/01 A3006 RMK A01 T00680012  RH  068%=      5-min Rain = 0
KDC1 181509Z 03004KT 07/01 A3006 RMK A01 T00700014  RH  068%=      5-min Rain = 0
KDC1 181510Z 03004KT 07/02 A3006 RMK A01 T00720016  RH  067%=      5-min Rain = 0
KDC1 181511Z 03005KT 07/02 A3006 RMK A01 T00740015  RH  066%=      5-min Rain = 0
KDC1 181512Z 02005KT 08/02 A3006 RMK A01 T00750016  RH  067%=      5-min Rain = 0
KDC1 181513Z 01006KT 08/02 A3006 RMK A01 T00750018  RH  067%=      5-min Rain = 0
KDC1 181514Z 02005KT 08/02 A3006 RMK A01 T00750019  RH  068%=      5-min Rain = 0
KDC1 181515Z 03004KT 07/02 A3006 RMK A01 T00740019  RH  068%=      5-min Rain = 0
KDC1 181516Z 04003KT 07/02 A3006 RMK A01 T00740019  RH  068%=      5-min Rain = 0
KDC1 181517Z 03003KT 07/02 A3006 RMK A01 T00740019  RH  068%=      5-min Rain = 0
KDC1 181518Z 04003KT 08/02 A3006 RMK A01 T00750017  RH  067%=      5-min Rain = 0
KDC1 181519Z 05002KT 08/02 A3006 RMK A01 T00760017  RH  066%=      5-min Rain = 0
KDC1 181520Z 10001KT 08/02 A3006 RMK A01 T00770018  RH  066%=      5-min Rain = 0
KDC1 181521Z 17002KT 08/02 A3006 RMK A01 T00780017  RH  066%=      5-min Rain = 0
KDC1 181522Z 18002KT 08/02 A3006 RMK A01 T00780019  RH  066%=      5-min Rain = 0
KDC1 181523Z 17003KT 08/02 A3005 RMK A01 T00790023  RH  068%=      5-min Rain = 0
KDC1 181524Z 16002KT 08/02 A3005 RMK A01 T00790024  RH  068%=      5-min Rain = 0
KDC1 181525Z 16002KT 08/03 A3005 RMK A01 T00790025  RH  068%=      5-min Rain = 0
KDC1 181526Z 17002KT 08/03 A3005 RMK A01 T00800025  RH  068%=      5-min Rain = 0
KDC1 181527Z 17003KT 08/03 A3005 RMK A01 T00800025  RH  068%=      5-min Rain = 0
KDC1 181528Z 14003KT 08/03 A3005 RMK A01 T00800025  RH  068%=      5-min Rain = 0
KDC1 181529Z 14002KT 08/02 A3005 RMK A01 T00810022  RH  066%=      5-min Rain = 0
KDC1 181530Z 14002KT 08/02 A3005 RMK A01 T00810023  RH  067%=      5-min Rain = 0
KDC1 181531Z 13003KT 08/03 A3005 RMK A01 T00820025  RH  067%=      5-min Rain = 0
KDC1 181532Z 13003KT 08/03 A3006 RMK A01 T00820025  RH  067%=      5-min Rain = 0
KDC1 181533Z 13002KT 08/03 A3006 RMK A01 T00830026  RH  067%=      5-min Rain = 0
KDC1 181534Z 11001KT 08/03 A3006 RMK A01 T00830025  RH  067%=      5-min Rain = 0
KDC1 181535Z 12001KT 08/02 A3006 RMK A01 T00840024  RH  066%=      5-min Rain = 0
KDC1 181536Z 15002KT 09/03 A3006 RMK A01 T00850026  RH  067%=      5-min Rain = 0
KDC1 181537Z 14003KT 09/03 A3006 RMK A01 T00850027  RH  067%=      5-min Rain = 0
KDC1 181538Z 14004KT 09/02 A3006 RMK A01 T00850022  RH  065%=      5-min Rain = 0
KDC1 181539Z 13004KT 09/02 A3006 RMK A01 T00860024  RH  065%=      5-min Rain = 0
KDC1 181540Z 14005KT 09/03 A3006 RMK A01 T00860029  RH  067%=      5-min Rain = 0
KDC1 181541Z 14005KT 09/03 A3006 RMK A01 T00860032  RH  068%=      5-min Rain = 0
KDC1 181542Z 14005KT 09/03 A3006 RMK A01 T00870027  RH  066%=      5-min Rain = 0
KDC1 181543Z 15004KT 09/03 A3006 RMK A01 T00860027  RH  066%=      5-min Rain = 0
KDC1 181544Z 17004KT 09/03 A3006 RMK A01 T00860028  RH  067%=      5-min Rain = 0
KDC1 181545Z 16005KT 09/03 A3007 RMK A01 T00850028  RH  067%=      5-min Rain = 0
KDC1 181546Z 14006KT 09/03 A3007 RMK A01 T00860029  RH  068%=      5-min Rain = 0
KDC1 181547Z 13006KT 09/03 A3007 RMK A01 T00860029  RH  067%=      5-min Rain = 0
KDC1 181548Z 13005KT 09/03 A3007 RMK A01 T00870029  RH  067%=      5-min Rain = 0
KDC1 181549Z 12005KT 09/03 A3007 RMK A01 T00880031  RH  067%=      5-min Rain = 0
KDC1 181550Z 06003KT 09/03 A3007 RMK A01 T00890026  RH  065%=      5-min Rain = 0
KDC1 181551Z 05006KT 09/03 A3007 RMK A01 T00910028  RH  065%=      5-min Rain = 0
KDC1 181552Z 07007KT 09/03 A3007 RMK A01 T00900025  RH  064%=      5-min Rain = 0
KDC1 181553Z 08006KT 09/02 A3007 RMK A01 T00900022  RH  063%=      5-min Rain = 0
KDC1 181554Z 08005KT 09/02 A3007 RMK A01 T00890024  RH  064%=      5-min Rain = 0
KDC1 181555Z 08004KT 09/02 A3007 RMK A01 T00890024  RH  063%=      5-min Rain = 0
KDC1 181556Z 11005KT 09/02 A3007 RMK A01 T00900024  RH  063%=      5-min Rain = 0
KDC1 181557Z 11004KT 09/03 A3007 RMK A01 T00910025  RH  063%=      5-min Rain = 0
KDC1 181558Z 11003KT 09/02 A3007 RMK A01 T00930024  RH  062%=      5-min Rain = 0
KDC1 181559Z 12005KT 10/02 A3007 RMK A01 T00960024  RH  060%=      5-min Rain = 0
KDC1 181600Z 12004KT 10/03 A3007 RMK A01 T00980032  RH  064%=      5-min Rain = 0
KDC1 181601Z 11004KT 10/03 A3007 RMK A01 T00970030  RH  063%=      5-min Rain = 0
KDC1 181602Z 10003KT 10/03 A3006 RMK A01 T00970031  RH  064%=      5-min Rain = 0
KDC1 181603Z 11004KT 10/03 A3006 RMK A01 T00960034  RH  065%=      5-min Rain = 0
KDC1 181604Z 13004KT 10/03 A3006 RMK A01 T00960032  RH  064%=      5-min Rain = 0
KDC1 181605Z 14003KT 10/03 A3006 RMK A01 T00970034  RH  065%=      5-min Rain = 0
KDC1 181606Z 15003KT 10/04 A3006 RMK A01 T00980035  RH  065%=      5-min Rain = 0
KDC1 181607Z 18002KT 10/03 A3007 RMK A01 T01000034  RH  063%=      5-min Rain = 0
KDC1 181608Z 26000KT 10/03 A3006 RMK A01 T01020032  RH  062%=      5-min Rain = 0
KDC1 181609Z 26000KT 10/03 A3006 RMK A01 T01040025  RH  058%=      5-min Rain = 0
KDC1 181610Z 00000KT 11/03 A3006 RMK A01 T01060025  RH  057%=      5-min Rain = 0
KDC1 181611Z 19001KT 11/02 A3006 RMK A01 T01080024  RH  056%=      5-min Rain = 0
KDC1 181612Z 17002KT 11/03 A3006 RMK A01 T01100027  RH  056%=      5-min Rain = 0
KDC1 181613Z 16003KT 11/03 A3006 RMK A01 T01120033  RH  058%=      5-min Rain = 0
KDC1 181614Z 17003KT 12/03 A3007 RMK A01 T01170026  RH  054%=      5-min Rain = 0
KDC1 181615Z 16003KT 12/02 A3007 RMK A01 T01200022  RH  051%=      5-min Rain = 0
KDC1 181616Z 18003KT 12/02 A3007 RMK A01 T01230024  RH  051%=      5-min Rain = 0
KDC1 181617Z 17002KT 13/02 A3007 RMK A01 T01260020  RH  048%=      5-min Rain = 0
KDC1 181618Z 18004KT 13/02 A3007 RMK A01 T01300022  RH  048%=      5-min Rain = 0
KDC1 181619Z 19004KT 13/02 A3007 RMK A01 T01330018  RH  046%=      5-min Rain = 0
KDC1 181620Z 18003KT 13/02 A3007 RMK A01 T01340016  RH  045%=      5-min Rain = 0
KDC1 181621Z 20007KT 13/02 A3007 RMK A01 T01340019  RH  045%=      5-min Rain = 0
KDC1 181622Z 18006KT 13/02 A3006 RMK A01 T01340015  RH  044%=      5-min Rain = 0
KDC1 181623Z 18006KT 13/02 A3006 RMK A01 T01330020  RH  046%=      5-min Rain = 0
KDC1 181624Z 19005KT 13/02 A3006 RMK A01 T01320021  RH  047%=      5-min Rain = 0
KDC1 181625Z 18004KT 13/02 A3006 RMK A01 T01320024  RH  048%=      5-min Rain = 0
KDC1 181626Z 18004KT 13/02 A3006 RMK A01 T01330023  RH  047%=      5-min Rain = 0
KDC1 181627Z 16006KT 13/02 A3006 RMK A01 T01340020  RH  046%=      5-min Rain = 0
KDC1 181628Z 17004KT 14/02 A3006 RMK A01 T01360024  RH  047%=      5-min Rain = 0
KDC1 181629Z 18004KT 14/02 A3006 RMK A01 T01370020  RH  045%=      5-min Rain = 0
KDC1 181630Z 21003KT 14/02 A3007 RMK A01 T01360018  RH  044%=      5-min Rain = 0
KDC1 181631Z 26004KT 14/02 A3007 RMK A01 T01360016  RH  044%=      5-min Rain = 0
KDC1 181632Z 26006KT 14/01 A3007 RMK A01 T01350014  RH  044%=      5-min Rain = 0
KDC1 181633Z 26005KT 13/02 A3007 RMK A01 T01340015  RH  044%=      5-min Rain = 0
KDC1 181634Z 20004KT 13/02 A3006 RMK A01 T01330016  RH  045%=      5-min Rain = 0
KDC1 181635Z 20004KT 13/01 A3006 RMK A01 T01320013  RH  044%=      5-min Rain = 0
KDC1 181636Z 19003KT 13/01 A3006 RMK A01 T01320013  RH  044%=      5-min Rain = 0
KDC1 181637Z 22002KT 13/02 A3006 RMK A01 T01320015  RH  045%=      5-min Rain = 0
KDC1 181638Z 24003KT 13/02 A3006 RMK A01 T01320016  RH  045%=      5-min Rain = 0
KDC1 181639Z 25003KT 13/02 A3007 RMK A01 T01320015  RH  045%=      5-min Rain = 0
KDC1 181640Z 24004KT 13/01 A3007 RMK A01 T01320014  RH  045%=      5-min Rain = 0
KDC1 181641Z 21003KT 13/01 A3007 RMK A01 T01310013  RH  045%=      5-min Rain = 0
KDC1 181642Z 17003KT 13/02 A3007 RMK A01 T01320015  RH  045%=      5-min Rain = 0
KDC1 181643Z 21004KT 13/02 A3007 RMK A01 T01310018  RH  046%=      5-min Rain = 0
KDC1 181644Z 22002KT 13/02 A3007 RMK A01 T01320016  RH  045%=      5-min Rain = 0
KDC1 181645Z 23006KT 13/02 A3007 RMK A01 T01310016  RH  045%=      5-min Rain = 0
KDC1 181646Z 23003KT 13/02 A3007 RMK A01 T01310015  RH  045%=      5-min Rain = 0
KDC1 181647Z 23002KT 13/02 A3006 RMK A01 T01310018  RH  046%=      5-min Rain = 0
KDC1 181648Z 20004KT 13/02 A3006 RMK A01 T01310017  RH  046%=      5-min Rain = 0
KDC1 181649Z 21004KT 13/02 A3006 RMK A01 T01320016  RH  045%=      5-min Rain = 0
KDC1 181650Z 22004KT 13/02 A3006 RMK A01 T01340018  RH  045%=      5-min Rain = 0
KDC1 181651Z 22004KT 14/02 A3006 RMK A01 T01360018  RH  045%=      5-min Rain = 0
KDC1 181652Z 21003KT 14/02 A3006 RMK A01 T01370020  RH  045%=      5-min Rain = 0
KDC1 181653Z 22003KT 14/02 A3006 RMK A01 T01380020  RH  045%=      5-min Rain = 0
KDC1 181654Z 20003KT 14/02 A3006 RMK A01 T01390019  RH  044%=      5-min Rain = 0
KDC1 181655Z 18004KT 14/02 A3006 RMK A01 T01390019  RH  044%=      5-min Rain = 0
KDC1 181656Z 18007KT 14/03 A3006 RMK A01 T01400026  RH  046%=      5-min Rain = 0
KDC1 181657Z 17007G12KT 14/03 A3006 RMK A01 T01410026  RH  046%=      5-min Rain = 0
KDC1 181658Z 17006KT 14/02 A3006 RMK A01 T01420022  RH  044%=      5-min Rain = 0
KDC1 181659Z 17005KT 14/02 A3006 RMK A01 T01430021  RH  044%=      5-min Rain = 0
KDC1 181700Z 15004KT 14/02 A3006 RMK A01 T01430017  RH  042%=      5-min Rain = 0
KDC1 181701Z 16007KT 14/03 A3006 RMK A01 T01420025  RH  045%=      5-min Rain = 0
KDC1 181702Z 19005KT 14/02 A3005 RMK A01 T01420023  RH  045%=      5-min Rain = 0
KDC1 181703Z 18004KT 14/02 A3005 RMK A01 T01400018  RH  043%=      5-min Rain = 0
KDC1 181704Z 15004KT 14/02 A3005 RMK A01 T01390019  RH  044%=      5-min Rain = 0
KDC1 181705Z 19006KT 14/02 A3005 RMK A01 T01390023  RH  045%=      5-min Rain = 0
KDC1 181706Z 18006KT 14/03 A3005 RMK A01 T01410025  RH  045%=      5-min Rain = 0
KDC1 181707Z 19004KT 14/03 A3005 RMK A01 T01440027  RH  045%=      5-min Rain = 0
KDC1 181708Z 23002KT 15/03 A3005 RMK A01 T01460027  RH  045%=      5-min Rain = 0
KDC1 181709Z 21003KT 15/02 A3005 RMK A01 T01480023  RH  043%=      5-min Rain = 0
KDC1 181710Z 23006KT 15/02 A3005 RMK A01 T01500023  RH  042%=      5-min Rain = 0
KDC1 181711Z 22005KT 15/02 A3005 RMK A01 T01510020  RH  041%=      5-min Rain = 0
KDC1 181712Z 20006KT 15/02 A3005 RMK A01 T01490019  RH  041%=      5-min Rain = 0
KDC1 181713Z 20006KT 15/02 A3006 RMK A01 T01450018  RH  042%=      5-min Rain = 0
KDC1 181714Z 20005KT 14/02 A3006 RMK A01 T01430020  RH  043%=      5-min Rain = 0
KDC1 181715Z 19004KT 14/02 A3005 RMK A01 T01420020  RH  044%=      5-min Rain = 0
KDC1 181716Z 16004KT 14/02 A3005 RMK A01 T01410020  RH  044%=      5-min Rain = 0
KDC1 181717Z 18004KT 14/02 A3005 RMK A01 T01400021  RH  044%=      5-min Rain = 0
KDC1 181718Z 20003KT 14/02 A3005 RMK A01 T01400020  RH  044%=      5-min Rain = 0
KDC1 181719Z 18003KT 14/02 A3005 RMK A01 T01390020  RH  044%=      5-min Rain = 0
KDC1 181720Z 20002KT 14/02 A3005 RMK A01 T01400020  RH  044%=      5-min Rain = 0
KDC1 181721Z 17004KT 14/02 A3005 RMK A01 T01390020  RH  045%=      5-min Rain = 0
KDC1 181722Z 17003KT 14/02 A3005 RMK A01 T01390022  RH  045%=      5-min Rain = 0
KDC1 181723Z 19002KT 14/03 A3005 RMK A01 T01390026  RH  046%=      5-min Rain = 0
KDC1 181724Z 21005KT 14/03 A3005 RMK A01 T01390027  RH  047%=      5-min Rain = 0
KDC1 181725Z 21005KT 14/03 A3005 RMK A01 T01400025  RH  046%=      5-min Rain = 0
KDC1 181726Z 21006KT 14/02 A3005 RMK A01 T01400022  RH  045%=      5-min Rain = 0
KDC1 181727Z 22004KT 14/02 A3005 RMK A01 T01400021  RH  044%=      5-min Rain = 0
KDC1 181728Z 22007KT 14/02 A3005 RMK A01 T01400022  RH  045%=      5-min Rain = 0
KDC1 181729Z 21006KT 14/02 A3004 RMK A01 T01400024  RH  045%=      5-min Rain = 0
KDC1 181730Z 24009G17KT 14/03 A3004 RMK A01 T01390025  RH  046%=      5-min Rain = 0
KDC1 181731Z 27015KT 14/03 A3004 RMK A01 T01410026  RH  046%=      5-min Rain = 0
KDC1 181732Z 26018G23KT 14/03 A3003 RMK A01 T01440026  RH  045%=      5-min Rain = 0
KDC1 181733Z 25013KT 15/03 A3004 RMK A01 T01460028  RH  045%=      5-min Rain = 0
KDC1 181734Z 20008KT 15/03 A3004 RMK A01 T01450026  RH  045%=      5-min Rain = 0
KDC1 181735Z 20009KT 14/02 A3003 RMK A01 T01420024  RH  045%=      5-min Rain = 0
KDC1 181736Z 21008G13KT 14/02 A3003 RMK A01 T01410021  RH  044%=      5-min Rain = 0
KDC1 181737Z 23005KT 14/02 A3004 RMK A01 T01420022  RH  044%=      5-min Rain = 0
KDC1 181738Z 22006KT 14/02 A3004 RMK A01 T01420022  RH  044%=      5-min Rain = 0
KDC1 181739Z 24005KT 14/02 A3004 RMK A01 T01430023  RH  044%=      5-min Rain = 0
KDC1 181740Z 24008KT 14/03 A3003 RMK A01 T01430026  RH  045%=      5-min Rain = 0
KDC1 181741Z 23007KT 14/03 A3003 RMK A01 T01440026  RH  045%=      5-min Rain = 0
KDC1 181742Z 23008KT 15/03 A3004 RMK A01 T01470025  RH  044%=      5-min Rain = 0
KDC1 181743Z 25009KT 15/03 A3004 RMK A01 T01500026  RH  043%=      5-min Rain = 0
KDC1 181744Z 25009KT 15/03 A3003 RMK A01 T01540028  RH  043%=      5-min Rain = 0
KDC1 181745Z 25012KT 16/03 A3003 RMK A01 T01570031  RH  043%=      5-min Rain = 0
KDC1 181746Z 25012KT 16/03 A3003 RMK A01 T01590028  RH  041%=      5-min Rain = 0
KDC1 181747Z 26013KT 16/03 A3003 RMK A01 T01590027  RH  041%=      5-min Rain = 0
KDC1 181748Z 25015KT 16/03 A3003 RMK A01 T01600026  RH  041%=      5-min Rain = 0
KDC1 181749Z 25014G20KT 16/03 A3003 RMK A01 T01600026  RH  041%=      5-min Rain = 0
KDC1 181750Z 25014KT 16/03 A3003 RMK A01 T01600027  RH  041%=      5-min Rain = 0
KDC1 181751Z 26016KT 16/03 A3003 RMK A01 T01610028  RH  041%=      5-min Rain = 0
KDC1 181752Z 26016KT 16/03 A3003 RMK A01 T01620029  RH  041%=      5-min Rain = 0
KDC1 181753Z 25016G22KT 16/03 A3003 RMK A01 T01630027  RH  040%=      5-min Rain = 0
KDC1 181754Z 25017KT 16/03 A3003 RMK A01 T01620026  RH  040%=      5-min Rain = 0
KDC1 181755Z 25016KT 16/03 A3003 RMK A01 T01620025  RH  040%=      5-min Rain = 0
KDC1 181756Z 26014KT 16/03 A3003 RMK A01 T01610025  RH  040%=      5-min Rain = 0
KDC1 181757Z 26013KT 16/03 A3003 RMK A01 T01630026  RH  040%=      5-min Rain = 0
KDC1 181758Z 27019KT 16/03 A3003 RMK A01 T01640029  RH  040%=      5-min Rain = 0
KDC1 181759Z 26018G24KT 17/03 A3003 RMK A01 T01650026  RH  039%=      5-min Rain = 0
KDC1 181800Z 25021G27KT 17/03 A3003 RMK A01 T01660028  RH  040%=      5-min Rain = 0
KDC1 181801Z 25020G25KT 17/03 A3003 RMK A01 T01650025  RH  039%=      5-min Rain = 0
KDC1 181802Z 25016G22KT 16/03 A3003 RMK A01 T01640026  RH  039%=      5-min Rain = 0
KDC1 181803Z 25019G24KT 17/03 A3002 RMK A01 T01650026  RH  039%=      5-min Rain = 0
KDC1 181804Z 25022G27KT 16/03 A3003 RMK A01 T01640026  RH  039%=      5-min Rain = 0
KDC1 181805Z 25020G25KT 16/03 A3003 RMK A01 T01640026  RH  040%=      5-min Rain = 0
KDC1 181806Z 25018KT 16/02 A3003 RMK A01 T01640024  RH  039%=      5-min Rain = 0
KDC1 181807Z 27022G27KT 17/03 A3003 RMK A01 T01650026  RH  039%=      5-min Rain = 0
KDC1 181808Z 27026KT 17/03 A3002 RMK A01 T01680025  RH  038%=      5-min Rain = 0
KDC1 181809Z 27025KT 17/02 A3002 RMK A01 T01680024  RH  038%=      5-min Rain = 0
KDC1 181810Z 27022G27KT 17/02 A3002 RMK A01 T01670024  RH  038%=      5-min Rain = 0
KDC1 181811Z 27023KT 17/03 A3002 RMK A01 T01660025  RH  039%=      5-min Rain = 0
KDC1 181812Z 27022G27KT 17/03 A3002 RMK A01 T01670027  RH  039%=      5-min Rain = 0
KDC1 181813Z 27024KT 17/03 A3002 RMK A01 T01690027  RH  038%=      5-min Rain = 0
KDC1 181814Z 26025KT 17/03 A3002 RMK A01 T01690027  RH  039%=      5-min Rain = 0
KDC1 181815Z 27027G34KT 17/03 A3002 RMK A01 T01690029  RH  039%=      5-min Rain = 0
KDC1 181816Z 27030KT 17/03 A3002 RMK A01 T01690026  RH  038%=      5-min Rain = 0
KDC1 181817Z 27029KT 17/03 A3001 RMK A01 T01680026  RH  038%=      5-min Rain = 0
KDC1 181818Z 27027KT 17/03 A3001 RMK A01 T01660025  RH  039%=      5-min Rain = 0
KDC1 181819Z 26030G35KT 17/03 A3001 RMK A01 T01650026  RH  039%=      5-min Rain = 0
KDC1 181820Z 27033KT 17/03 A3001 RMK A01 T01660026  RH  039%=      5-min Rain = 0
KDC1 181821Z 27032KT 17/03 A30 RMK A01 T01660026  RH  039%=      5-min Rain = 0
KDC1 181822Z 27029KT 17/03 A30 RMK A01 T01660026  RH  039%=      5-min Rain = 0
KDC1 181823Z 27027G33KT 17/03 A30 RMK A01 T01660026  RH  039%=      5-min Rain = 0
KDC1 181824Z 26031KT 17/03 A30 RMK A01 T01670027  RH  039%=      5-min Rain = 0
KDC1 181825Z 26029G35KT 17/03 A30 RMK A01 T01670027  RH  039%=      5-min Rain = 0
KDC1 181826Z 26027G33KT 17/03 A30 RMK A01 T01670029  RH  039%=      5-min Rain = 0
KDC1 181827Z 26025G30KT 17/03 A30 RMK A01 T01680029  RH  039%=      5-min Rain = 0
KDC1 181828Z 26027KT 17/03 A2999 RMK A01 T01670030  RH  040%=      5-min Rain = 0
KDC1 181829Z 26027G32KT 17/03 A2999 RMK A01 T01670029  RH  040%=      5-min Rain = 0
KDC1 181830Z 26025KT 17/03 A2999 RMK A01 T01670029  RH  040%=      5-min Rain = 0
KDC1 181831Z 26026G33KT 17/03 A2999 RMK A01 T01690030  RH  039%=      5-min Rain = 0
KDC1 181832Z 26027KT 17/03 A2999 RMK A01 T01680028  RH  039%=      5-min Rain = 0
KDC1 181833Z 26023KT 17/03 A2999 RMK A01 T01670029  RH  040%=      5-min Rain = 0
KDC1 181834Z 26027G32KT 17/03 A2998 RMK A01 T01670029  RH  040%=      5-min Rain = 0
KDC1 181835Z 26026KT 17/03 A2998 RMK A01 T01670028  RH  039%=      5-min Rain = 0
KDC1 181836Z 26026G33KT 17/03 A2998 RMK A01 T01680031  RH  040%=      5-min Rain = 0
KDC1 181837Z 26024G30KT 17/03 A2998 RMK A01 T01710030  RH  039%=      5-min Rain = 0
KDC1 181838Z 25031KT 17/03 A2998 RMK A01 T01710030  RH  039%=      5-min Rain = 0
KDC1 181839Z 26027G32KT 17/03 A2998 RMK A01 T01690029  RH  039%=      5-min Rain = 0
KDC1 181840Z 27027KT 17/03 A2998 RMK A01 T01690028  RH  039%=      5-min Rain = 0
KDC1 181841Z 27027KT 17/03 A2998 RMK A01 T01700025  RH  038%=      5-min Rain = 0
KDC1 181842Z 26027G33KT 17/02 A2998 RMK A01 T01680024  RH  038%=      5-min Rain = 0
KDC1 181843Z 27029KT 17/03 A2998 RMK A01 T01670026  RH  039%=      5-min Rain = 0
KDC1 181844Z 28031KT 17/02 A2997 RMK A01 T01680024  RH  038%=      5-min Rain = 0
KDC1 181845Z 28028G35KT 17/03 A2997 RMK A01 T01690025  RH  038%=      5-min Rain = 0
KDC1 181846Z 26023G30KT 17/03 A2997 RMK A01 T01690026  RH  038%=      5-min Rain = 0
KDC1 181847Z 25023KT 17/03 A2998 RMK A01 T01690029  RH  039%=      5-min Rain = 0
KDC1 181848Z 26024KT 17/03 A2998 RMK A01 T01690031  RH  040%=      5-min Rain = 0
KDC1 181849Z 26027KT 17/03 A2997 RMK A01 T01690027  RH  039%=      5-min Rain = 0
KDC1 181850Z 26027KT 17/03 A2997 RMK A01 T01690027  RH  038%=      5-min Rain = 0
KDC1 181851Z 27033KT 17/03 A2997 RMK A01 T01690026  RH  038%=      5-min Rain = 0
KDC1 181852Z 27031G38KT 17/02 A2997 RMK A01 T01680023  RH  038%=      5-min Rain = 0
KDC1 181853Z 27030G35KT 17/02 A2997 RMK A01 T01670023  RH  038%=      5-min Rain = 0
KDC1 181854Z 26024KT 17/03 A2997 RMK A01 T01690026  RH  038%=      5-min Rain = 0
KDC1 181855Z 25024KT 17/03 A2997 RMK A01 T01710030  RH  039%=      5-min Rain = 0
KDC1 181856Z 25026G32KT 17/03 A2996 RMK A01 T01720029  RH  038%=      5-min Rain = 0
KDC1 181857Z 25027G33KT 17/03 A2996 RMK A01 T01690028  RH  039%=      5-min Rain = 0
KDC1 181858Z 26027G33KT 17/03 A2996 RMK A01 T01670027  RH  039%=      5-min Rain = 0
KDC1 181859Z 27032KT 17/03 A2996 RMK A01 T01660026  RH  039%=      5-min Rain = 0
KDC1 181900Z 27029KT 17/02 A2996 RMK A01 T01670024  RH  038%=      5-min Rain = 0
KDC1 181901Z 27029G36KT 17/03 A2996 RMK A01 T01690026  RH  038%=      5-min Rain = 0
KDC1 181902Z 27034G39KT 17/03 A2996 RMK A01 T01720026  RH  038%=      5-min Rain = 0
KDC1 181903Z 27034KT 17/03 A2995 RMK A01 T01720025  RH  037%=      5-min Rain = 0
KDC1 181904Z 27032KT 17/03 A2995 RMK A01 T01710025  RH  038%=      5-min Rain = 0
KDC1 181905Z 27030KT 17/03 A2995 RMK A01 T01710026  RH  038%=      5-min Rain = 0
KDC1 181906Z 27027KT 17/03 A2996 RMK A01 T01700027  RH  038%=      5-min Rain = 0
KDC1 181907Z 27030G35KT 17/03 A2995 RMK A01 T01710028  RH  038%=      5-min Rain = 0
KDC1 181908Z 27027G34KT 17/03 A2995 RMK A01 T01720028  RH  038%=      5-min Rain = 0
KDC1 181909Z 26031G39KT 18/03 A2995 RMK A01 T01750029  RH  038%=      5-min Rain = 0
KDC1 181910Z 27034KT 17/03 A2995 RMK A01 T01740028  RH  038%=      5-min Rain = 0
KDC1 181911Z 27030KT 17/03 A2995 RMK A01 T01730027  RH  038%=      5-min Rain = 0
KDC1 181912Z 26029G35KT 17/03 A2995 RMK A01 T01740028  RH  038%=      5-min Rain = 0
KDC1 181913Z 26025G30KT 18/03 A2995 RMK A01 T01750029  RH  038%=      5-min Rain = 0
KDC1 181914Z 27028KT 18/03 A2994 RMK A01 T01750028  RH  037%=      5-min Rain = 0
KDC1 181915Z 28027KT 17/03 A2994 RMK A01 T01730027  RH  037%=      5-min Rain = 0
KDC1 181916Z 28030KT 17/03 A2994 RMK A01 T01720026  RH  038%=      5-min Rain = 0
KDC1 181917Z 28027KT 17/03 A2994 RMK A01 T01710026  RH  038%=      5-min Rain = 0
KDC1 181918Z 26023G31KT 17/03 A2994 RMK A01 T01690027  RH  039%=      5-min Rain = 0
KDC1 181919Z 26021KT 17/03 A2994 RMK A01 T01680031  RH  040%=      5-min Rain = 0
KDC1 181920Z 25024KT 17/03 A2994 RMK A01 T01690032  RH  040%=      5-min Rain = 0
KDC1 181921Z 26023KT 17/03 A2994 RMK A01 T01690030  RH  039%=      5-min Rain = 0
KDC1 181922Z 26022KT 17/03 A2994 RMK A01 T01690029  RH  039%=      5-min Rain = 0
KDC1 181923Z 26019G25KT 17/03 A2994 RMK A01 T01710030  RH  039%=      5-min Rain = 0
KDC1 181924Z 26024G32KT 18/03 A2994 RMK A01 T01750030  RH  038%=      5-min Rain = 0
KDC1 181925Z 26020G26KT 18/03 A2994 RMK A01 T01750028  RH  037%=      5-min Rain = 0
KDC1 181926Z 27026KT 17/03 A2993 RMK A01 T01730028  RH  038%=      5-min Rain = 0
KDC1 181927Z 27030KT 17/03 A2993 RMK A01 T01740028  RH  037%=      5-min Rain = 0
KDC1 181928Z 27025KT 18/03 A2993 RMK A01 T01760027  RH  037%=      5-min Rain = 0
KDC1 181929Z 26024KT 18/03 A2994 RMK A01 T01770029  RH  037%=      5-min Rain = 0
KDC1 181930Z 26022KT 18/03 A2994 RMK A01 T01770029  RH  037%=      5-min Rain = 0
KDC1 181931Z 26023G28KT 18/03 A2994 RMK A01 T01770031  RH  038%=      5-min Rain = 0
KDC1 181932Z 26027G33KT 18/03 A2993 RMK A01 T01770029  RH  037%=      5-min Rain = 0
KDC1 181933Z 27027KT 18/03 A2993 RMK A01 T01760028  RH  037%=      5-min Rain = 0
KDC1 181934Z 27028G34KT 18/03 A2993 RMK A01 T01770028  RH  037%=      5-min Rain = 0
KDC1 181935Z 27028KT 18/03 A2993 RMK A01 T01790026  RH  036%=      5-min Rain = 0
KDC1 181936Z 27031KT 18/03 A2993 RMK A01 T01790026  RH  036%=      5-min Rain = 0
KDC1 181937Z 27025KT 18/03 A2993 RMK A01 T01780026  RH  036%=      5-min Rain = 0
KDC1 181938Z 27024KT 18/03 A2993 RMK A01 T01780027  RH  036%=      5-min Rain = 0
KDC1 181939Z 27025KT 18/03 A2993 RMK A01 T01790028  RH  036%=      5-min Rain = 0
KDC1 181940Z 27026KT 18/03 A2993 RMK A01 T01810027  RH  036%=      5-min Rain = 0
KDC1 181941Z 26024KT 18/03 A2993 RMK A01 T01800027  RH  036%=      5-min Rain = 0
KDC1 181942Z 25024G29KT 18/03 A2993 RMK A01 T01800027  RH  036%=      5-min Rain = 0
KDC1 181943Z 26025G32KT 18/03 A2993 RMK A01 T01760027  RH  037%=      5-min Rain = 0
KDC1 181944Z 26027G32KT 18/03 A2993 RMK A01 T01760026  RH  036%=      5-min Rain = 0
KDC1 181945Z 26026KT 18/03 A2993 RMK A01 T01770026  RH  037%=      5-min Rain = 0
KDC1 181946Z 26019G24KT 18/03 A2993 RMK A01 T01780028  RH  037%=      5-min Rain = 0
KDC1 181947Z 25022KT 18/03 A2993 RMK A01 T01800030  RH  037%=      5-min Rain = 0
KDC1 181948Z 25023G29KT 18/03 A2993 RMK A01 T01780031  RH  037%=      5-min Rain = 0
KDC1 181949Z 26024KT 18/03 A2993 RMK A01 T01780029  RH  037%=      5-min Rain = 0
KDC1 181950Z 27023G29KT 18/03 A2993 RMK A01 T01790028  RH  036%=      5-min Rain = 0
KDC1 181951Z 27030KT 18/03 A2993 RMK A01 T01820027  RH  035%=      5-min Rain = 0
KDC1 181952Z 27028KT 18/03 A2993 RMK A01 T01820026  RH  035%=      5-min Rain = 0
KDC1 181953Z 26027G33KT 18/03 A2993 RMK A01 T01800025  RH  035%=      5-min Rain = 0
KDC1 181954Z 27027G36KT 18/03 A2993 RMK A01 T01790025  RH  036%=      5-min Rain = 0
KDC1 181955Z 26030G36KT 18/03 A2992 RMK A01 T01800025  RH  035%=      5-min Rain = 0
KDC1 181956Z 26027G32KT 18/03 A2992 RMK A01 T01800027  RH  036%=      5-min Rain = 0
KDC1 181957Z 26025G33KT 18/03 A2992 RMK A01 T01810028  RH  036%=      5-min Rain = 0
KDC1 181958Z 26030KT 18/03 A2992 RMK A01 T01810026  RH  036%=      5-min Rain = 0
KDC1 181959Z 27029KT 18/03 A2992 RMK A01 T01800025  RH  036%=      5-min Rain = 0
KDC1 182000Z 28026KT 18/02 A2992 RMK A01 T01780024  RH  036%=      5-min Rain = 0
KDC1 182001Z 27026KT 18/03 A2992 RMK A01 T01780025  RH  036%=      5-min Rain = 0
KDC1 182002Z 27024KT 18/03 A2992 RMK A01 T01780026  RH  036%=      5-min Rain = 0
KDC1 182003Z 27024KT 18/03 A2992 RMK A01 T01810026  RH  036%=      5-min Rain = 0
KDC1 182004Z 27028KT 18/03 A2991 RMK A01 T01800026  RH  036%=      5-min Rain = 0
KDC1 182005Z 27028KT 18/02 A2991 RMK A01 T01800024  RH  035%=      5-min Rain = 0
KDC1 182006Z 27026KT 18/02 A2991 RMK A01 T01810024  RH  035%=      5-min Rain = 0
KDC1 182007Z 27027G36KT 18/02 A2991 RMK A01 T01830024  RH  035%=      5-min Rain = 0
KDC1 182008Z 26027G33KT 18/03 A2991 RMK A01 T01840025  RH  034%=      5-min Rain = 0
KDC1 182009Z 27029KT 18/02 A2991 RMK A01 T01830024  RH  034%=      5-min Rain = 0
KDC1 182010Z 27029G35KT 18/03 A2991 RMK A01 T01840025  RH  035%=      5-min Rain = 0
KDC1 182011Z 27030G35KT 18/02 A299 RMK A01 T01840024  RH  034%=      5-min Rain = 0
KDC1 182012Z 26030G36KT 18/02 A299 RMK A01 T01830024  RH  035%=      5-min Rain = 0
KDC1 182013Z 28028KT 18/02 A299 RMK A01 T01820023  RH  035%=      5-min Rain = 0
KDC1 182014Z 28028KT 18/02 A299 RMK A01 T01830023  RH  034%=      5-min Rain = 0
KDC1 182015Z 27030G35KT 18/02 A299 RMK A01 T01840023  RH  034%=      5-min Rain = 0
KDC1 182016Z 27026KT 19/02 A299 RMK A01 T01850021  RH  034%=      5-min Rain = 0
KDC1 182017Z 27029KT 19/02 A299 RMK A01 T01850022  RH  034%=      5-min Rain = 0
KDC1 182018Z 27031KT 19/02 A299 RMK A01 T01860024  RH  034%=      5-min Rain = 0
KDC1 182019Z 27028G34KT 18/02 A299 RMK A01 T01840023  RH  034%=      5-min Rain = 0
KDC1 182020Z 28027G32KT 18/02 A299 RMK A01 T01840024  RH  034%=      5-min Rain = 0
KDC1 182021Z 28025KT 18/02 A299 RMK A01 T01840024  RH  034%=      5-min Rain = 0
KDC1 182022Z 27027G32KT 19/02 A299 RMK A01 T01850024  RH  034%=      5-min Rain = 0
KDC1 182023Z 27026G31KT 19/02 A299 RMK A01 T01850024  RH  034%=      5-min Rain = 0
KDC1 182024Z 27027G32KT 19/03 A299 RMK A01 T01860025  RH  034%=      5-min Rain = 0
KDC1 182025Z 28026KT 19/02 A299 RMK A01 T01850023  RH  034%=      5-min Rain = 0
KDC1 182026Z 28023KT 19/02 A299 RMK A01 T01850023  RH  034%=      5-min Rain = 0
KDC1 182027Z 27024KT 18/02 A299 RMK A01 T01840022  RH  034%=      5-min Rain = 0
KDC1 182028Z 27026G32KT 18/02 A299 RMK A01 T01830023  RH  034%=      5-min Rain = 0
KDC1 182029Z 27028G35KT 18/02 A2989 RMK A01 T01840023  RH  034%=      5-min Rain = 0
KDC1 182030Z 27027KT 19/02 A299 RMK A01 T01860022  RH  034%=      5-min Rain = 0
KDC1 182031Z 28029KT 18/02 A2989 RMK A01 T01830019  RH  033%=      5-min Rain = 0
KDC1 182032Z 27027KT 18/02 A299 RMK A01 T01810020  RH  034%=      5-min Rain = 0
KDC1 182033Z 28023G29KT 18/02 A299 RMK A01 T01800020  RH  034%=      5-min Rain = 0
KDC1 182034Z 27025KT 18/02 A2989 RMK A01 T01780021  RH  035%=      5-min Rain = 0
KDC1 182035Z 27024KT 18/02 A2989 RMK A01 T01780021  RH  035%=      5-min Rain = 0
KDC1 182036Z 28024KT 18/02 A2989 RMK A01 T01780021  RH  035%=      5-min Rain = 0
KDC1 182037Z 28026G32KT 18/02 A2989 RMK A01 T01810020  RH  034%=      5-min Rain = 0
KDC1 182038Z 29024KT 18/02 A2989 RMK A01 T01820020  RH  034%=      5-min Rain = 0
KDC1 182039Z 30027KT 19/02 A2989 RMK A01 T01860022  RH  033%=      5-min Rain = 0
KDC1 182040Z 28024KT 19/02 A2989 RMK A01 T01870022  RH  033%=      5-min Rain = 0
KDC1 182041Z 26023KT 19/02 A2989 RMK A01 T01890024  RH  033%=      5-min Rain = 0
KDC1 182042Z 26021G27KT 19/03 A2989 RMK A01 T01890025  RH  034%=      5-min Rain = 0
KDC1 182043Z 27026G35KT 19/03 A2989 RMK A01 T01880028  RH  034%=      5-min Rain = 0
KDC1 182044Z 27023G28KT 19/03 A2989 RMK A01 T01890026  RH  034%=      5-min Rain = 0
KDC1 182045Z 26027G33KT 19/03 A2989 RMK A01 T01890027  RH  034%=      5-min Rain = 0
KDC1 182046Z 26028G35KT 19/03 A2989 RMK A01 T01870026  RH  034%=      5-min Rain = 0
KDC1 182047Z 26027G35KT 19/03 A2989 RMK A01 T01850026  RH  035%=      5-min Rain = 0
KDC1 182048Z 26025KT 18/03 A2989 RMK A01 T01830027  RH  035%=      5-min Rain = 0
KDC1 182049Z 25029G35KT 18/03 A2989 RMK A01 T01810027  RH  036%=      5-min Rain = 0
KDC1 182050Z 26026KT 18/03 A2989 RMK A01 T01780025  RH  036%=      5-min Rain = 0
KDC1 182051Z 26023KT 18/03 A2989 RMK A01 T01770025  RH  036%=      5-min Rain = 0
KDC1 182052Z 26027G37KT 18/02 A2989 RMK A01 T01770024  RH  036%=      5-min Rain = 0
KDC1 182053Z 28029KT 18/02 A2988 RMK A01 T01790023  RH  035%=      5-min Rain = 0
KDC1 182054Z 28028KT 18/02 A2988 RMK A01 T01800022  RH  035%=      5-min Rain = 0
KDC1 182055Z 27027G33KT 18/02 A2988 RMK A01 T01790023  RH  035%=      5-min Rain = 0
KDC1 182056Z 25026G31KT 18/02 A2988 RMK A01 T01790024  RH  035%=      5-min Rain = 0
KDC1 182057Z 25028G34KT 18/02 A2988 RMK A01 T01790024  RH  035%=      5-min Rain = 0
KDC1 182058Z 27027G34KT 18/03 A2988 RMK A01 T01780026  RH  036%=      5-min Rain = 0
KDC1 182059Z 27027KT 18/03 A2988 RMK A01 T01800025  RH  035%=      5-min Rain = 0
KDC1 182100Z 27029G34KT 18/02 A2988 RMK A01 T01820023  RH  034%=      5-min Rain = 0
KDC1 182101Z 26033G38KT 18/02 A2988 RMK A01 T01820022  RH  034%=      5-min Rain = 0
KDC1 182102Z 27026G33KT 18/02 A2988 RMK A01 T01810021  RH  034%=      5-min Rain = 0
KDC1 182103Z 26023G29KT 18/03 A2988 RMK A01 T01830025  RH  035%=      5-min Rain = 0
KDC1 182104Z 27027G33KT 18/03 A2988 RMK A01 T01840027  RH  035%=      5-min Rain = 0
KDC1 182105Z 27030KT 19/02 A2987 RMK A01 T01850021  RH  033%=      5-min Rain = 0
KDC1 182106Z 27025G32KT 19/02 A2988 RMK A01 T01850021  RH  033%=      5-min Rain = 0
KDC1 182107Z 26029KT 19/02 A2988 RMK A01 T01860024  RH  034%=      5-min Rain = 0
KDC1 182108Z 26029KT 18/02 A2987 RMK A01 T01830023  RH  034%=      5-min Rain = 0
KDC1 182109Z 26026G31KT 18/03 A2988 RMK A01 T01830025  RH  035%=      5-min Rain = 0
KDC1 182110Z 26027G32KT 18/03 A2987 RMK A01 T01830026  RH  035%=      5-min Rain = 0
KDC1 182111Z 26031KT 18/03 A2988 RMK A01 T01830027  RH  035%=      5-min Rain = 0
KDC1 182112Z 27028KT 18/03 A2988 RMK A01 T01820025  RH  035%=      5-min Rain = 0
KDC1 182113Z 27025KT 18/02 A2988 RMK A01 T01840024  RH  034%=      5-min Rain = 0
KDC1 182114Z 27024G29KT 19/02 A2988 RMK A01 T01860022  RH  033%=      5-min Rain = 0
KDC1 182115Z 26030G37KT 19/02 A2987 RMK A01 T01850024  RH  034%=      5-min Rain = 0
KDC1 182116Z 27034KT 19/02 A2987 RMK A01 T01850021  RH  033%=      5-min Rain = 0
KDC1 182117Z 27034KT 19/02 A2987 RMK A01 T01850017  RH  032%=      5-min Rain = 0
KDC1 182118Z 27032KT 19/02 A2987 RMK A01 T01860018  RH  032%=      5-min Rain = 0
KDC1 182119Z 27032KT 19/02 A2987 RMK A01 T01890019  RH  032%=      5-min Rain = 0
KDC1 182120Z 27031KT 19/02 A2987 RMK A01 T01900018  RH  032%=      5-min Rain = 0
KDC1 182121Z 27030KT 19/02 A2987 RMK A01 T01900018  RH  032%=      5-min Rain = 0
KDC1 182122Z 28029KT 19/02 A2987 RMK A01 T01890019  RH  032%=      5-min Rain = 0
KDC1 182123Z 27029G34KT 19/02 A2987 RMK A01 T01880020  RH  033%=      5-min Rain = 0
KDC1 182124Z 27031KT 19/02 A2987 RMK A01 T01890020  RH  032%=      5-min Rain = 0
KDC1 182125Z 26030G37KT 19/02 A2987 RMK A01 T01890020  RH  032%=      5-min Rain = 0
KDC1 182126Z 26030G35KT 19/02 A2987 RMK A01 T01870022  RH  033%=      5-min Rain = 0
KDC1 182127Z 27031KT 19/02 A2987 RMK A01 T01880022  RH  033%=      5-min Rain = 0
KDC1 182128Z 27028G34KT 19/02 A2987 RMK A01 T01880021  RH  033%=      5-min Rain = 0
KDC1 182129Z 27026KT 19/02 A2987 RMK A01 T01880021  RH  033%=      5-min Rain = 0
KDC1 182130Z 27024G30KT 19/02 A2987 RMK A01 T01890022  RH  033%=      5-min Rain = 0
KDC1 182131Z 25029G36KT 19/02 A2987 RMK A01 T01890023  RH  033%=      5-min Rain = 0
KDC1 182132Z 26028G39KT 19/02 A2987 RMK A01 T01880022  RH  033%=      5-min Rain = 0
KDC1 182133Z 26028G34KT 19/02 A2987 RMK A01 T01860020  RH  033%=      5-min Rain = 0
KDC1 182134Z 26028G35KT 19/02 A2987 RMK A01 T01850021  RH  033%=      5-min Rain = 0
KDC1 182135Z 27027KT 19/02 A2987 RMK A01 T01860020  RH  033%=      5-min Rain = 0
KDC1 182136Z 26027G32KT 19/02 A2987 RMK A01 T01860019  RH  033%=      5-min Rain = 0
KDC1 182137Z 27032KT 19/02 A2986 RMK A01 T01860020  RH  033%=      5-min Rain = 0
KDC1 182138Z 27030KT 19/02 A2986 RMK A01 T01850019  RH  033%=      5-min Rain = 0
KDC1 182139Z 26029G34KT 19/02 A2986 RMK A01 T01850020  RH  033%=      5-min Rain = 0
KDC1 182140Z 26024G29KT 19/02 A2987 RMK A01 T01850022  RH  034%=      5-min Rain = 0
KDC1 182141Z 26025G33KT 18/02 A2987 RMK A01 T01840024  RH  034%=      5-min Rain = 0
KDC1 182142Z 26027G34KT 19/02 A2986 RMK A01 T01850022  RH  034%=      5-min Rain = 0
KDC1 182143Z 27032G38KT 19/02 A2986 RMK A01 T01850019  RH  033%=      5-min Rain = 0
KDC1 182144Z 27033G38KT 19/02 A2986 RMK A01 T01860015  RH  032%=      5-min Rain = 0
KDC1 182145Z 27030G36KT 19/02 A2986 RMK A01 T01860016  RH  032%=      5-min Rain = 0
KDC1 182146Z 26028G33KT 19/02 A2986 RMK A01 T01870016  RH  032%=      5-min Rain = 0
KDC1 182147Z 27030G39KT 19/02 A2986 RMK A01 T01870017  RH  032%=      5-min Rain = 0
KDC1 182148Z 27032G39KT 19/02 A2986 RMK A01 T01870015  RH  032%=      5-min Rain = 0
KDC1 182149Z 27035KT 19/02 A2986 RMK A01 T01860015  RH  032%=      5-min Rain = 0
KDC1 182150Z 27030G35KT 19/01 A2986 RMK A01 T01860014  RH  032%=      5-min Rain = 0
KDC1 182151Z 27027G34KT 19/01 A2986 RMK A01 T01850013  RH  032%=      5-min Rain = 0
KDC1 182152Z 26024KT 19/01 A2986 RMK A01 T01870014  RH  032%=      5-min Rain = 0
KDC1 182153Z 26028G34KT 19/02 A2986 RMK A01 T01880015  RH  031%=      5-min Rain = 0
KDC1 182154Z 26026G33KT 19/02 A2986 RMK A01 T01880015  RH  031%=      5-min Rain = 0
KDC1 182155Z 27032G39KT 19/01 A2986 RMK A01 T01880012  RH  031%=      5-min Rain = 0
KDC1 182156Z 27033G39KT 19/01 A2986 RMK A01 T01880008  RH  030%=      5-min Rain = 0
KDC1 182157Z 28033G39KT 19/01 A2987 RMK A01 T01880008  RH  030%=      5-min Rain = 0
KDC1 182158Z 31029G37KT 19/01 A2987 RMK A01 T01850008  RH  030%=      5-min Rain = 0
KDC1 182159Z 31031KT 18/01 A2987 RMK A01 T01760007  RH  032%=      5-min Rain = 0
KDC1 182200Z 30030KT 17/01 A2987 RMK A01 T01700007  RH  033%=      5-min Rain = 0
KDC1 182201Z 31027G32KT 17/01 A2988 RMK A01 T01680007  RH  034%=      5-min Rain = 0
KDC1 182202Z 31023G28KT 17/01 A2988 RMK A01 T01650007  RH  034%=      5-min Rain = 0
KDC1 182203Z 31026KT 16/01 A2988 RMK A01 T01630006  RH  034%=      5-min Rain = 0
KDC1 182204Z 31029KT 16/01 A2988 RMK A01 T01600005  RH  035%=      5-min Rain = 0
KDC1 182205Z 31028G33KT 16/01 A2988 RMK A01 T01590005  RH  035%=      5-min Rain = 0
KDC1 182206Z 32025KT 16/01 A2988 RMK A01 T01590005  RH  035%=      5-min Rain = 0
KDC1 182207Z 31025G30KT 16/01 A2988 RMK A01 T01590005  RH  035%=      5-min Rain = 0
KDC1 182208Z 31023KT 16/01 A2989 RMK A01 T01600005  RH  035%=      5-min Rain = 0
KDC1 182209Z 30027G33KT 16/01 A2989 RMK A01 T01620006  RH  035%=      5-min Rain = 0
KDC1 182210Z 30029KT 16/00 A2989 RMK A01 T01610003  RH  034%=      5-min Rain = 0
KDC1 182211Z 30028KT 16/00 A2988 RMK A01 T01590001  RH  034%=      5-min Rain = 0
KDC1 182212Z 30027KT 16/00 A2988 RMK A01 T01580001  RH  034%=      5-min Rain = 0
KDC1 182213Z 30030KT 16/00 A2988 RMK A01 T015800-0  RH  034%=      5-min Rain = 0
KDC1 182214Z 30028G33KT 16/M00 A2988 RMK A01 T01581001  RH  034%=      5-min Rain = 0
KDC1 182215Z 31027G32KT 16/M00 A2988 RMK A01 T01571002  RH  034%=      5-min Rain = 0
KDC1 182216Z 31029G34KT 16/M00 A2988 RMK A01 T01581001  RH  034%=      5-min Rain = 0
KDC1 182217Z 30026KT 16/M00 A2988 RMK A01 T01581001  RH  034%=      5-min Rain = 0
KDC1 182218Z 30025G33KT 16/00 A2989 RMK A01 T015800-0  RH  034%=      5-min Rain = 0
KDC1 182219Z 30026KT 16/M00 A2989 RMK A01 T01591003  RH  033%=      5-min Rain = 0
KDC1 182220Z 30024KT 16/M00 A2989 RMK A01 T01591003  RH  033%=      5-min Rain = 0
KDC1 182221Z 30025G30KT 16/M00 A2989 RMK A01 T01581003  RH  033%=      5-min Rain = 0
KDC1 182222Z 31029KT 16/M00 A2989 RMK A01 T01581004  RH  033%=      5-min Rain = 0
KDC1 182223Z 31027KT 16/M00 A2989 RMK A01 T01571004  RH  033%=      5-min Rain = 0
KDC1 182224Z 30026KT 16/M00 A2989 RMK A01 T01571004  RH  033%=      5-min Rain = 0
KDC1 182225Z 30027KT 16/M00 A2989 RMK A01 T01571004  RH  033%=      5-min Rain = 0
KDC1 182226Z 30024KT 16/M00 A2989 RMK A01 T01571003  RH  034%=      5-min Rain = 0
KDC1 182227Z 30023KT 16/M00 A2989 RMK A01 T01571003  RH  034%=      5-min Rain = 0
KDC1 182228Z 31025KT 16/M00 A2989 RMK A01 T01571003  RH  034%=      5-min Rain = 0
KDC1 182229Z 31028KT 16/M00 A2989 RMK A01 T01571004  RH  033%=      5-min Rain = 0
KDC1 182230Z 30026G31KT 16/M00 A2989 RMK A01 T01551004  RH  034%=      5-min Rain = 0
KDC1 182231Z 30026KT 15/M01 A2989 RMK A01 T01541005  RH  034%=      5-min Rain = 0
KDC1 182232Z 31029KT 15/M01 A2989 RMK A01 T01541006  RH  034%=      5-min Rain = 0
KDC1 182233Z 31026G31KT 15/M01 A299 RMK A01 T01541008  RH  033%=      5-min Rain = 0
KDC1 182234Z 31026KT 15/M01 A299 RMK A01 T01541008  RH  033%=      5-min Rain = 0
KDC1 182235Z 31024G32KT 15/M01 A299 RMK A01 T01531009  RH  033%=      5-min Rain = 0
KDC1 182236Z 30027KT 15/M01 A299 RMK A01 T01531008  RH  033%=      5-min Rain = 0
KDC1 182237Z 30027KT 15/M01 A299 RMK A01 T01531009  RH  033%=      5-min Rain = 0
KDC1 182238Z 30026KT 15/M01 A299 RMK A01 T01531010  RH  033%=      5-min Rain = 0
KDC1 182239Z 31024KT 15/M01 A299 RMK A01 T01531010  RH  033%=      5-min Rain = 0
KDC1 182240Z 30027KT 15/M01 A299 RMK A01 T01531010  RH  033%=      5-min Rain = 0
KDC1 182241Z 30025G30KT 15/M01 A299 RMK A01 T01531011  RH  032%=      5-min Rain = 0
KDC1 182242Z 30028KT 15/M01 A299 RMK A01 T01521012  RH  032%=      5-min Rain = 0
KDC1 182243Z 30027KT 15/M01 A299 RMK A01 T01511013  RH  032%=      5-min Rain = 0
KDC1 182244Z 31024G29KT 15/M01 A299 RMK A01 T01511013  RH  032%=      5-min Rain = 0
KDC1 182245Z 30027KT 15/M01 A299 RMK A01 T01511013  RH  033%=      5-min Rain = 0
KDC1 182246Z 31024G29KT 15/M01 A299 RMK A01 T01511013  RH  033%=      5-min Rain = 0
KDC1 182247Z 30024KT 15/M01 A2991 RMK A01 T01501013  RH  033%=      5-min Rain = 0
KDC1 182248Z 31025KT 15/M01 A2991 RMK A01 T01501013  RH  033%=      5-min Rain = 0
KDC1 182249Z 31026KT 15/M01 A2991 RMK A01 T01501014  RH  032%=      5-min Rain = 0
KDC1 182250Z 31025KT 15/M01 A2991 RMK A01 T01501014  RH  032%=      5-min Rain = 0
KDC1 182251Z 30023KT 15/M01 A2991 RMK A01 T01501014  RH  032%=      5-min Rain = 0
KDC1 182252Z 30024G31KT 15/M01 A2991 RMK A01 T01501014  RH  032%=      5-min Rain = 0
KDC1 182253Z 31025KT 15/M01 A2991 RMK A01 T01501014  RH  032%=      5-min Rain = 0
KDC1 182254Z 31027KT 15/M02 A2991 RMK A01 T01501015  RH  032%=      5-min Rain = 0
KDC1 182255Z 31026G31KT 15/M02 A2991 RMK A01 T01491015  RH  032%=      5-min Rain = 0
KDC1 182256Z 31024KT 15/M02 A2991 RMK A01 T01491016  RH  032%=      5-min Rain = 0
KDC1 182257Z 31025G31KT 15/M02 A2991 RMK A01 T01491015  RH  032%=      5-min Rain = 0
KDC1 182258Z 31025KT 15/M02 A2991 RMK A01 T01491016  RH  032%=      5-min Rain = 0
KDC1 182259Z 30022G27KT 15/M02 A2991 RMK A01 T01491016  RH  032%=      5-min Rain = 0
KDC1 182300Z 30024KT 15/M02 A2991 RMK A01 T01491016  RH  032%=      5-min Rain = 0
KDC1 182301Z 30024G29KT 15/M02 A2991 RMK A01 T01491016  RH  032%=      5-min Rain = 0
KDC1 182302Z 30027KT 15/M02 A2991 RMK A01 T01481017  RH  032%=      5-min Rain = 0
KDC1 182303Z 31025G31KT 15/M02 A2991 RMK A01 T01481019  RH  032%=      5-min Rain = 0
KDC1 182304Z 30027KT 15/M02 A2991 RMK A01 T01471020  RH  032%=      5-min Rain = 0
KDC1 182305Z 31028KT 15/M02 A2991 RMK A01 T01471020  RH  032%=      5-min Rain = 0
KDC1 182306Z 31028KT 15/M02 A2991 RMK A01 T01461021  RH  032%=      5-min Rain = 0
KDC1 182307Z 30028KT 15/M02 A2991 RMK A01 T01461021  RH  031%=      5-min Rain = 0
KDC1 182308Z 30027G32KT 15/M02 A2991 RMK A01 T01451022  RH  031%=      5-min Rain = 0
KDC1 182309Z 30025KT 15/M02 A2991 RMK A01 T01451022  RH  031%=      5-min Rain = 0
KDC1 182310Z 30023G28KT 15/M02 A2992 RMK A01 T01451022  RH  031%=      5-min Rain = 0
KDC1 182311Z 30025KT 14/M02 A2991 RMK A01 T01441023  RH  031%=      5-min Rain = 0
KDC1 182312Z 30023KT 14/M02 A2992 RMK A01 T01441024  RH  031%=      5-min Rain = 0
KDC1 182313Z 31024KT 14/M03 A2992 RMK A01 T01431025  RH  031%=      5-min Rain = 0
KDC1 182314Z 31020G25KT 14/M03 A2992 RMK A01 T01431026  RH  031%=      5-min Rain = 0
KDC1 182315Z 30017KT 14/M02 A2992 RMK A01 T01421024  RH  032%=      5-min Rain = 0
KDC1 182316Z 30022G29KT 14/M02 A2992 RMK A01 T01421024  RH  032%=      5-min Rain = 0
KDC1 182317Z 30025KT 14/M03 A2992 RMK A01 T01411028  RH  031%=      5-min Rain = 0
KDC1 182318Z 30022KT 14/M03 A2992 RMK A01 T01411029  RH  031%=      5-min Rain = 0
KDC1 182319Z 30021KT 14/M03 A2992 RMK A01 T01411029  RH  031%=      5-min Rain = 0
KDC1 182320Z 30025G31KT 14/M03 A2992 RMK A01 T01401030  RH  031%=      5-min Rain = 0
KDC1 182321Z 30028G33KT 14/M03 A2992 RMK A01 T01401031  RH  030%=      5-min Rain = 0
KDC1 182322Z 30027KT 14/M03 A2992 RMK A01 T01391032  RH  030%=      5-min Rain = 0
KDC1 182323Z 30029KT 14/M03 A2992 RMK A01 T01391033  RH  030%=      5-min Rain = 0
KDC1 182324Z 31023KT 14/M03 A2992 RMK A01 T01381033  RH  030%=      5-min Rain = 0
KDC1 182325Z 30023KT 14/M03 A2992 RMK A01 T01381032  RH  031%=      5-min Rain = 0
KDC1 182326Z 30023KT 14/M03 A2992 RMK A01 T01371032  RH  031%=      5-min Rain = 0
KDC1 182327Z 30026KT 14/M03 A2992 RMK A01 T01371033  RH  031%=      5-min Rain = 0
KDC1 182328Z 31028KT 14/M03 A2992 RMK A01 T01371034  RH  030%=      5-min Rain = 0
KDC1 182329Z 31028G34KT 14/M04 A2992 RMK A01 T01361036  RH  030%=      5-min Rain = 0
KDC1 182330Z 31028G34KT 14/M04 A2992 RMK A01 T01371036  RH  030%=      5-min Rain = 0
KDC1 182331Z 30029G35KT 14/M04 A2992 RMK A01 T01361036  RH  030%=      5-min Rain = 0
KDC1 182332Z 31029G37KT 14/M04 A2992 RMK A01 T01361036  RH  030%=      5-min Rain = 0
KDC1 182333Z 30026KT 14/M04 A2993 RMK A01 T01361036  RH  030%=      5-min Rain = 0
KDC1 182334Z 30027KT 14/M04 A2992 RMK A01 T01351036  RH  030%=      5-min Rain = 0
KDC1 182335Z 30025KT 14/M04 A2992 RMK A01 T01351036  RH  030%=      5-min Rain = 0
KDC1 182336Z 30021KT 14/M04 A2993 RMK A01 T01351036  RH  030%=      5-min Rain = 0
KDC1 182337Z 30020KT 14/M04 A2993 RMK A01 T01351036  RH  031%=      5-min Rain = 0
KDC1 182338Z 30020G26KT 13/M04 A2993 RMK A01 T01341035  RH  031%=      5-min Rain = 0
KDC1 182339Z 30024KT 13/M04 A2993 RMK A01 T01331036  RH  031%=      5-min Rain = 0
KDC1 182340Z 30026KT 13/M04 A2993 RMK A01 T01331037  RH  031%=      5-min Rain = 0
KDC1 182341Z 30022KT 13/M04 A2993 RMK A01 T01331037  RH  031%=      5-min Rain = 0
KDC1 182342Z 30024KT 13/M04 A2993 RMK A01 T01331037  RH  031%=      5-min Rain = 0
KDC1 182343Z 31025G30KT 13/M04 A2993 RMK A01 T01321037  RH  031%=      5-min Rain = 0
KDC1 182344Z 31027KT 13/M04 A2993 RMK A01 T01321038  RH  031%=      5-min Rain = 0
KDC1 182345Z 30026KT 13/M04 A2993 RMK A01 T01321038  RH  030%=      5-min Rain = 0
KDC1 182346Z 31028G33KT 13/M04 A2993 RMK A01 T01321038  RH  030%=      5-min Rain = 0
KDC1 182347Z 31026G31KT 13/M04 A2993 RMK A01 T01321038  RH  030%=      5-min Rain = 0
KDC1 182348Z 31022KT 13/M04 A2993 RMK A01 T01321037  RH  031%=      5-min Rain = 0
KDC1 182349Z 31026KT 13/M04 A2993 RMK A01 T01311038  RH  031%=      5-min Rain = 0
KDC1 182350Z 30024G30KT 13/M04 A2993 RMK A01 T01311038  RH  031%=      5-min Rain = 0
KDC1 182351Z 30023KT 13/M04 A2993 RMK A01 T01311038  RH  031%=      5-min Rain = 0
KDC1 182352Z 30020KT 13/M04 A2994 RMK A01 T01301038  RH  031%=      5-min Rain = 0
KDC1 182353Z 30020KT 13/M04 A2994 RMK A01 T01291038  RH  031%=      5-min Rain = 0
KDC1 182354Z 30020G25KT 13/M04 A2994 RMK A01 T01281038  RH  031%=      5-min Rain = 0
KDC1 182355Z 31019KT 13/M04 A2994 RMK A01 T01281038  RH  031%=      5-min Rain = 0
KDC1 182356Z 31021KT 13/M04 A2994 RMK A01 T01281039  RH  031%=      5-min Rain = 0
KDC1 182357Z 30020KT 13/M04 A2994 RMK A01 T01281040  RH  031%=      5-min Rain = 0
KDC1 182358Z 30020KT 13/M04 A2994 RMK A01 T01281040  RH  031%=      5-min Rain = 0
KDC1 182359Z 31017KT 13/M04 A2994 RMK A01 T01271040  RH  031%=      5-min Rain = 0
KDC1 190000Z 31018KT 13/M04 A2994 RMK A01 T01271040  RH  031%=      5-min Rain = 0
KDC1 190001Z 30019KT 13/M04 A2994 RMK A01 T01271040  RH  031%=      5-min Rain = 0
KDC1 190002Z 31019G24KT 13/M04 A2994 RMK A01 T01261041  RH  031%=      5-min Rain = 0
KDC1 190003Z 31018KT 13/M04 A2994 RMK A01 T01261041  RH  031%=      5-min Rain = 0
KDC1 190004Z 31019KT 13/M04 A2994 RMK A01 T01261041  RH  031%=      5-min Rain = 0
KDC1 190005Z 30018G24KT 13/M04 A2994 RMK A01 T01261041  RH  031%=      5-min Rain = 0
KDC1 190006Z 31024G29KT 13/M04 A2994 RMK A01 T01251042  RH  031%=      5-min Rain = 0
KDC1 190007Z 31024KT 13/M04 A2994 RMK A01 T01261042  RH  031%=      5-min Rain = 0
KDC1 190008Z 31021KT 13/M04 A2994 RMK A01 T01271043  RH  030%=      5-min Rain = 0
KDC1 190009Z 31022G28KT 13/M04 A2994 RMK A01 T01271042  RH  031%=      5-min Rain = 0
KDC1 190010Z 31021G26KT 13/M04 A2994 RMK A01 T01261043  RH  030%=      5-min Rain = 0
KDC1 190011Z 31021KT 13/M04 A2994 RMK A01 T01261042  RH  031%=      5-min Rain = 0
KDC1 190012Z 31021KT 13/M04 A2994 RMK A01 T01261042  RH  031%=      5-min Rain = 0
KDC1 190013Z 31023KT 13/M04 A2994 RMK A01 T01261042  RH  031%=      5-min Rain = 0
KDC1 190014Z 30020KT 13/M04 A2994 RMK A01 T01261042  RH  031%=      5-min Rain = 0
KDC1 190015Z 31021G26KT 13/M04 A2994 RMK A01 T01251042  RH  031%=      5-min Rain = 0
KDC1 190016Z 31022KT 13/M04 A2994 RMK A01 T01251043  RH  031%=      5-min Rain = 0
KDC1 190017Z 31023G29KT 13/M04 A2994 RMK A01 T01251043  RH  031%=      5-min Rain = 0
KDC1 190018Z 31025KT 13/M04 A2994 RMK A01 T01261043  RH  031%=      5-min Rain = 0
KDC1 190019Z 31026G31KT 13/M04 A2994 RMK A01 T01261044  RH  030%=      5-min Rain = 0
KDC1 190020Z 31029G34KT 13/M04 A2994 RMK A01 T01271044  RH  030%=      5-min Rain = 0
KDC1 190021Z 31027G32KT 13/M04 A2994 RMK A01 T01271044  RH  030%=      5-min Rain = 0
KDC1 190022Z 31023G32KT 13/M04 A2994 RMK A01 T01281043  RH  030%=      5-min Rain = 0
KDC1 190023Z 31027KT 13/M04 A2994 RMK A01 T01271043  RH  030%=      5-min Rain = 0
KDC1 190024Z 31026G32KT 13/M04 A2994 RMK A01 T01271044  RH  030%=      5-min Rain = 0
KDC1 190025Z 31024KT 13/M04 A2994 RMK A01 T01271044  RH  030%=      5-min Rain = 0
KDC1 190026Z 31025G32KT 13/M04 A2994 RMK A01 T01261043  RH  030%=      5-min Rain = 0
KDC1 190027Z 31031G36KT 13/M04 A2994 RMK A01 T01261044  RH  030%=      5-min Rain = 0
KDC1 190028Z 31031G36KT 13/M04 A2994 RMK A01 T01261044  RH  030%=      5-min Rain = 0
KDC1 190029Z 31026KT 13/M04 A2994 RMK A01 T01271044  RH  030%=      5-min Rain = 0
KDC1 190030Z 32024KT 13/M04 A2995 RMK A01 T01261043  RH  030%=      5-min Rain = 0
KDC1 190031Z 31025KT 13/M04 A2995 RMK A01 T01251043  RH  031%=      5-min Rain = 0
KDC1 190032Z 31031KT 13/M04 A2994 RMK A01 T01251043  RH  031%=      5-min Rain = 0
KDC1 190033Z 31030KT 13/M04 A2994 RMK A01 T01261043  RH  030%=      5-min Rain = 0
KDC1 190034Z 31029KT 13/M04 A2995 RMK A01 T01271043  RH  030%=      5-min Rain = 0
KDC1 190035Z 31024KT 13/M04 A2995 RMK A01 T01271043  RH  030%=      5-min Rain = 0
KDC1 190036Z 31027KT 13/M04 A2995 RMK A01 T01251043  RH  031%=      5-min Rain = 0
KDC1 190037Z 31029KT 13/M04 A2995 RMK A01 T01261043  RH  031%=      5-min Rain = 0
KDC1 190038Z 31029G35KT 13/M04 A2995 RMK A01 T01261043  RH  031%=      5-min Rain = 0
KDC1 190039Z 31028KT 13/M04 A2995 RMK A01 T01261043  RH  030%=      5-min Rain = 0
KDC1 190040Z 31029KT 13/M04 A2995 RMK A01 T01271042  RH  031%=      5-min Rain = 0
KDC1 190041Z 31028G33KT 13/M04 A2995 RMK A01 T01261042  RH  031%=      5-min Rain = 0
KDC1 190042Z 31025KT 13/M04 A2996 RMK A01 T01261042  RH  031%=      5-min Rain = 0
KDC1 190043Z 31030KT 13/M04 A2995 RMK A01 T01261042  RH  031%=      5-min Rain = 0
KDC1 190044Z 31029KT 13/M04 A2995 RMK A01 T01261042  RH  031%=      5-min Rain = 0
KDC1 190045Z 31029KT 13/M04 A2995 RMK A01 T01261042  RH  031%=      5-min Rain = 0
KDC1 190046Z 31025G33KT 13/M04 A2996 RMK A01 T01261042  RH  031%=      5-min Rain = 0
KDC1 190047Z 32029KT 13/M04 A2995 RMK A01 T01251042  RH  031%=      5-min Rain = 0
KDC1 190048Z 31027KT 13/M04 A2996 RMK A01 T01261042  RH  031%=      5-min Rain = 0
KDC1 190049Z 32025G30KT 13/M04 A2996 RMK A01 T01251042  RH  031%=      5-min Rain = 0
KDC1 190050Z 32028KT 12/M04 A2996 RMK A01 T01241042  RH  031%=      5-min Rain = 0
KDC1 190051Z 31025G30KT 12/M04 A2996 RMK A01 T01241042  RH  031%=      5-min Rain = 0
KDC1 190052Z 31027KT 12/M04 A2996 RMK A01 T01241042  RH  031%=      5-min Rain = 0
KDC1 190053Z 31026KT 12/M04 A2996 RMK A01 T01241042  RH  031%=      5-min Rain = 0
KDC1 190054Z 31026KT 12/M04 A2996 RMK A01 T01241042  RH  031%=      5-min Rain = 0
KDC1 190055Z 31025KT 13/M04 A2996 RMK A01 T01251042  RH  031%=      5-min Rain = 0
KDC1 190056Z 32025KT 13/M04 A2996 RMK A01 T01251042  RH  031%=      5-min Rain = 0
KDC1 190057Z 31027KT 12/M04 A2996 RMK A01 T01241042  RH  031%=      5-min Rain = 0
KDC1 190058Z 32026KT 12/M04 A2996 RMK A01 T01241042  RH  031%=      5-min Rain = 0
KDC1 190059Z 31023KT 12/M04 A2997 RMK A01 T01241042  RH  031%=      5-min Rain = 0
KDC1 190100Z 31025KT 12/M04 A2997 RMK A01 T01241042  RH  031%=      5-min Rain = 0
KDC1 190101Z 32021G26KT 12/M04 A2997 RMK A01 T01241041  RH  031%=      5-min Rain = 0
KDC1 190102Z 31021KT 12/M04 A2997 RMK A01 T01231041  RH  032%=      5-min Rain = 0
KDC1 190103Z 31025KT 12/M04 A2997 RMK A01 T01221041  RH  032%=      5-min Rain = 0
KDC1 190104Z 31027KT 12/M04 A2997 RMK A01 T01231042  RH  031%=      5-min Rain = 0
KDC1 190105Z 31025G30KT 12/M04 A2997 RMK A01 T01241042  RH  031%=      5-min Rain = 0
KDC1 190106Z 31027G32KT 12/M04 A2997 RMK A01 T01241042  RH  031%=      5-min Rain = 0
KDC1 190107Z 31028KT 12/M04 A2997 RMK A01 T01241042  RH  031%=      5-min Rain = 0
KDC1 190108Z 31027KT 12/M04 A2997 RMK A01 T01241043  RH  031%=      5-min Rain = 0
KDC1 190109Z 31028G34KT 13/M04 A2997 RMK A01 T01251042  RH  031%=      5-min Rain = 0
KDC1 190110Z 31026KT 13/M04 A2997 RMK A01 T01251043  RH  031%=      5-min Rain = 0
KDC1 190111Z 32031G38KT 13/M04 A2997 RMK A01 T01251042  RH  031%=      5-min Rain = 0
KDC1 190112Z 31027KT 13/M04 A2998 RMK A01 T01251042  RH  031%=      5-min Rain = 0
KDC1 190113Z 31028G34KT 13/M04 A2998 RMK A01 T01251042  RH  031%=      5-min Rain = 0
KDC1 190114Z 32028KT 13/M04 A2998 RMK A01 T01251042  RH  031%=      5-min Rain = 0
KDC1 190115Z 31026KT 13/M04 A2998 RMK A01 T01251042  RH  031%=      5-min Rain = 0
KDC1 190116Z 31027G33KT 12/M04 A2998 RMK A01 T01241042  RH  031%=      5-min Rain = 0
KDC1 190117Z 31028KT 12/M04 A2998 RMK A01 T01241042  RH  031%=      5-min Rain = 0
KDC1 190118Z 31026G32KT 12/M04 A2998 RMK A01 T01241042  RH  031%=      5-min Rain = 0
KDC1 190119Z 31026KT 12/M04 A2998 RMK A01 T01241042  RH  031%=      5-min Rain = 0
KDC1 190120Z 31023KT 12/M04 A2998 RMK A01 T01241042  RH  031%=      5-min Rain = 0
KDC1 190121Z 31022KT 12/M04 A2999 RMK A01 T01231042  RH  031%=      5-min Rain = 0
KDC1 190122Z 31022G27KT 12/M04 A2999 RMK A01 T01221042  RH  032%=      5-min Rain = 0
KDC1 190123Z 31025G30KT 12/M04 A2999 RMK A01 T01231041  RH  032%=      5-min Rain = 0
KDC1 190124Z 31021G26KT 12/M04 A2999 RMK A01 T01231041  RH  031%=      5-min Rain = 0
KDC1 190125Z 31026KT 12/M04 A2999 RMK A01 T01221042  RH  032%=      5-min Rain = 0
KDC1 190126Z 31025G32KT 12/M04 A2999 RMK A01 T01231042  RH  031%=      5-min Rain = 0
KDC1 190127Z 30022KT 12/M04 A2999 RMK A01 T01231041  RH  031%=      5-min Rain = 0
KDC1 190128Z 30022G27KT 12/M04 A2999 RMK A01 T01231041  RH  032%=      5-min Rain = 0
KDC1 190129Z 30023G29KT 12/M04 A2999 RMK A01 T01211041  RH  032%=      5-min Rain = 0
KDC1 190130Z 31026KT 12/M04 A2999 RMK A01 T01211041  RH  032%=      5-min Rain = 0
KDC1 190131Z 31027G32KT 12/M04 A2999 RMK A01 T01221040  RH  032%=      5-min Rain = 0
KDC1 190132Z 31029KT 12/M04 A2999 RMK A01 T01221040  RH  032%=      5-min Rain = 0
KDC1 190133Z 31028G34KT 12/M04 A2999 RMK A01 T01221039  RH  032%=      5-min Rain = 0
KDC1 190134Z 31025G31KT 12/M04 A2999 RMK A01 T01221038  RH  032%=      5-min Rain = 0
KDC1 190135Z 31024G32KT 12/M04 A2999 RMK A01 T01201038  RH  033%=      5-min Rain = 0
KDC1 190136Z 31023G29KT 12/M04 A2999 RMK A01 T01201038  RH  033%=      5-min Rain = 0
KDC1 190137Z 31028G34KT 12/M04 A2999 RMK A01 T01191038  RH  033%=      5-min Rain = 0
KDC1 190138Z 31027G33KT 12/M04 A2999 RMK A01 T01191038  RH  033%=      5-min Rain = 0
KDC1 190139Z 31025G30KT 12/M04 A2999 RMK A01 T01191038  RH  033%=      5-min Rain = 0
KDC1 190140Z 31024KT 12/M04 A2999 RMK A01 T01201037  RH  033%=      5-min Rain = 0
KDC1 190141Z 31024G32KT 12/M04 A2999 RMK A01 T01191037  RH  033%=      5-min Rain = 0
KDC1 190142Z 31030KT 12/M04 A2999 RMK A01 T01181037  RH  033%=      5-min Rain = 0
KDC1 190143Z 31027G32KT 12/M04 A2999 RMK A01 T01201037  RH  033%=      5-min Rain = 0
KDC1 190144Z 31026KT 12/M04 A2999 RMK A01 T01191037  RH  033%=      5-min Rain = 0
KDC1 190145Z 31024G30KT 12/M04 A30 RMK A01 T01191037  RH  033%=      5-min Rain = 0
KDC1 190146Z 31028KT 12/M04 A30 RMK A01 T01181037  RH  034%=      5-min Rain = 0
KDC1 190147Z 31025KT 12/M04 A30 RMK A01 T01181037  RH  034%=      5-min Rain = 0
KDC1 190148Z 31026KT 12/M04 A30 RMK A01 T01181037  RH  034%=      5-min Rain = 0
KDC1 190149Z 31022KT 12/M04 A30 RMK A01 T01181037  RH  034%=      5-min Rain = 0
KDC1 190150Z 31024KT 12/M04 A30 RMK A01 T01161037  RH  034%=      5-min Rain = 0
KDC1 190151Z 31025KT 12/M04 A30 RMK A01 T01161037  RH  034%=      5-min Rain = 0
KDC1 190152Z 31025G30KT 12/M04 A30 RMK A01 T01161037  RH  034%=      5-min Rain = 0
KDC1 190153Z 32032KT 12/M04 A30 RMK A01 T01171037  RH  034%=      5-min Rain = 0
KDC1 190154Z 31028G34KT 12/M04 A30 RMK A01 T01181038  RH  033%=      5-min Rain = 0
KDC1 190155Z 31027G34KT 12/M04 A30 RMK A01 T01191037  RH  033%=      5-min Rain = 0
KDC1 190156Z 31025KT 12/M04 A30 RMK A01 T01181038  RH  033%=      5-min Rain = 0
KDC1 190157Z 31025KT 12/M04 A30 RMK A01 T01171038  RH  034%=      5-min Rain = 0
KDC1 190158Z 31024G29KT 12/M04 A3001 RMK A01 T01171038  RH  034%=      5-min Rain = 0
KDC1 190159Z 32027G32KT 12/M04 A30 RMK A01 T01161038  RH  034%=      5-min Rain = 0
KDC1 190200Z 31026KT 12/M04 A3001 RMK A01 T01161039  RH  033%=      5-min Rain = 0
KDC1 190201Z 32027KT 12/M04 A3001 RMK A01 T01171039  RH  033%=      5-min Rain = 0
KDC1 190202Z 31026G31KT 12/M04 A3001 RMK A01 T01171039  RH  033%=      5-min Rain = 0
KDC1 190203Z 32023G28KT 12/M04 A3001 RMK A01 T01171039  RH  033%=      5-min Rain = 0
KDC1 190204Z 32024G29KT 12/M04 A3001 RMK A01 T01161040  RH  033%=      5-min Rain = 0
KDC1 190205Z 31026G31KT 12/M04 A3001 RMK A01 T01161041  RH  033%=      5-min Rain = 0
KDC1 190206Z 31026G31KT 12/M04 A3001 RMK A01 T01161042  RH  033%=      5-min Rain = 0
KDC1 190207Z 31029G34KT 12/M04 A3001 RMK A01 T01161042  RH  033%=      5-min Rain = 0
KDC1 190208Z 32027KT 12/M04 A3001 RMK A01 T01171044  RH  032%=      5-min Rain = 0
KDC1 190209Z 31024KT 12/M04 A3001 RMK A01 T01161044  RH  032%=      5-min Rain = 0
KDC1 190210Z 31023KT 12/M04 A3002 RMK A01 T01161043  RH  033%=      5-min Rain = 0
KDC1 190211Z 32025G30KT 11/M04 A3002 RMK A01 T01141044  RH  033%=      5-min Rain = 0
KDC1 190212Z 32025KT 12/M05 A3002 RMK A01 T01151045  RH  032%=      5-min Rain = 0
KDC1 190213Z 31024KT 12/M05 A3001 RMK A01 T01151045  RH  032%=      5-min Rain = 0
KDC1 190214Z 31022KT 11/M05 A3002 RMK A01 T01141045  RH  032%=      5-min Rain = 0
KDC1 190215Z 31022G29KT 11/M05 A3002 RMK A01 T01141045  RH  033%=      5-min Rain = 0
KDC1 190216Z 31025G30KT 11/M05 A3002 RMK A01 T01141045  RH  033%=      5-min Rain = 0
KDC1 190217Z 31025G30KT 11/M05 A3002 RMK A01 T01141046  RH  032%=      5-min Rain = 0
KDC1 190218Z 32026G31KT 11/M05 A3002 RMK A01 T01141046  RH  032%=      5-min Rain = 0
KDC1 190219Z 31028KT 11/M05 A3002 RMK A01 T01141047  RH  032%=      5-min Rain = 0
KDC1 190220Z 31027G32KT 11/M05 A3002 RMK A01 T01141048  RH  032%=      5-min Rain = 0
KDC1 190221Z 32027KT 12/M05 A3002 RMK A01 T01151049  RH  031%=      5-min Rain = 0
KDC1 190222Z 31024KT 12/M05 A3002 RMK A01 T01151049  RH  031%=      5-min Rain = 0
KDC1 190223Z 31022G27KT 12/M05 A3002 RMK A01 T01151049  RH  031%=      5-min Rain = 0
KDC1 190224Z 31022KT 11/M05 A3003 RMK A01 T01141049  RH  032%=      5-min Rain = 0
KDC1 190225Z 31025KT 11/M05 A3003 RMK A01 T01131049  RH  032%=      5-min Rain = 0
KDC1 190226Z 31022KT 11/M05 A3003 RMK A01 T01131050  RH  032%=      5-min Rain = 0
KDC1 190227Z 31027G32KT 11/M05 A3003 RMK A01 T01131050  RH  032%=      5-min Rain = 0
KDC1 190228Z 31023KT 11/M05 A3003 RMK A01 T01131050  RH  031%=      5-min Rain = 0
KDC1 190229Z 31024KT 11/M05 A3003 RMK A01 T01131050  RH  032%=      5-min Rain = 0
KDC1 190230Z 31027G32KT 11/M05 A3003 RMK A01 T01131050  RH  032%=      5-min Rain = 0
KDC1 190231Z 31024KT 11/M05 A3003 RMK A01 T01131051  RH  031%=      5-min Rain = 0
KDC1 190232Z 31022KT 11/M05 A3003 RMK A01 T01131051  RH  031%=      5-min Rain = 0
KDC1 190233Z 31026G31KT 11/M05 A3003 RMK A01 T01121052  RH  031%=      5-min Rain = 0
KDC1 190234Z 31025G30KT 11/M05 A3003 RMK A01 T01121053  RH  031%=      5-min Rain = 0
KDC1 190235Z 31025KT 11/M05 A3003 RMK A01 T01121054  RH  031%=      5-min Rain = 0
KDC1 190236Z 31022KT 11/M05 A3003 RMK A01 T01121054  RH  031%=      5-min Rain = 0
KDC1 190237Z 31024G29KT 11/M05 A3003 RMK A01 T01111054  RH  031%=      5-min Rain = 0
KDC1 190238Z 31026KT 11/M06 A3003 RMK A01 T01111055  RH  031%=      5-min Rain = 0
KDC1 190239Z 32025G32KT 11/M06 A3003 RMK A01 T01111055  RH  031%=      5-min Rain = 0
KDC1 190240Z 32027KT 11/M06 A3003 RMK A01 T01111055  RH  031%=      5-min Rain = 0
KDC1 190241Z 31026KT 11/M06 A3003 RMK A01 T01121056  RH  030%=      5-min Rain = 0
KDC1 190242Z 31026G34KT 11/M06 A3003 RMK A01 T01121056  RH  030%=      5-min Rain = 0
KDC1 190243Z 31027G32KT 11/M06 A3003 RMK A01 T01121056  RH  030%=      5-min Rain = 0
KDC1 190244Z 31025KT 11/M06 A3003 RMK A01 T01121057  RH  030%=      5-min Rain = 0
KDC1 190245Z 31027KT 11/M06 A3003 RMK A01 T01121056  RH  030%=      5-min Rain = 0
KDC1 190246Z 31027KT 11/M06 A3003 RMK A01 T01121057  RH  030%=      5-min Rain = 0
KDC1 190247Z 31028KT 11/M06 A3003 RMK A01 T01121057  RH  030%=      5-min Rain = 0
KDC1 190248Z 31028G33KT 11/M06 A3003 RMK A01 T01121057  RH  030%=      5-min Rain = 0
KDC1 190249Z 31027G32KT 11/M06 A3003 RMK A01 T01121057  RH  030%=      5-min Rain = 0
KDC1 190250Z 31025KT 11/M06 A3003 RMK A01 T01121057  RH  030%=      5-min Rain = 0
KDC1 190251Z 31025KT 11/M06 A3004 RMK A01 T01111057  RH  030%=      5-min Rain = 0
KDC1 190252Z 31026G32KT 11/M06 A3004 RMK A01 T01111057  RH  030%=      5-min Rain = 0
KDC1 190253Z 32026G31KT 11/M06 A3004 RMK A01 T01111057  RH  030%=      5-min Rain = 0
KDC1 190254Z 31026KT 11/M06 A3004 RMK A01 T01111058  RH  030%=      5-min Rain = 0
KDC1 190255Z 32025G31KT 11/M06 A3004 RMK A01 T01111058  RH  030%=      5-min Rain = 0
KDC1 190256Z 31023G28KT 11/M06 A3004 RMK A01 T01101058  RH  030%=      5-min Rain = 0
KDC1 190257Z 31027KT 11/M06 A3004 RMK A01 T01091058  RH  030%=      5-min Rain = 0
KDC1 190258Z 31024KT 11/M06 A3004 RMK A01 T01101059  RH  030%=      5-min Rain = 0
KDC1 190259Z 31023G28KT 11/M06 A3004 RMK A01 T01101059  RH  030%=      5-min Rain = 0
KDC1 190300Z 31022G28KT 11/M06 A3004 RMK A01 T01091059  RH  030%=      5-min Rain = 0
KDC1 190301Z 31025G30KT 11/M06 A3005 RMK A01 T01091059  RH  030%=      5-min Rain = 0
KDC1 190302Z 31021KT 11/M06 A3004 RMK A01 T01091059  RH  030%=      5-min Rain = 0
KDC1 190303Z 31021G28KT 11/M06 A3005 RMK A01 T01081059  RH  030%=      5-min Rain = 0
KDC1 190304Z 31024G29KT 11/M06 A3004 RMK A01 T01081060  RH  030%=      5-min Rain = 0
KDC1 190305Z 31025KT 11/M06 A3004 RMK A01 T01081060  RH  030%=      5-min Rain = 0
KDC1 190306Z 31023KT 11/M06 A3004 RMK A01 T01081061  RH  030%=      5-min Rain = 0
KDC1 190307Z 31022KT 11/M06 A3005 RMK A01 T01081060  RH  030%=      5-min Rain = 0
KDC1 190308Z 32024G29KT 11/M06 A3005 RMK A01 T01071061  RH  030%=      5-min Rain = 0
KDC1 190309Z 32025KT 11/M06 A3005 RMK A01 T01071061  RH  030%=      5-min Rain = 0
KDC1 190310Z 31020KT 11/M06 A3005 RMK A01 T01081061  RH  030%=      5-min Rain = 0
KDC1 190311Z 31024G30KT 11/M06 A3005 RMK A01 T01071061  RH  030%=      5-min Rain = 0
KDC1 190312Z 31022KT 11/M06 A3005 RMK A01 T01071061  RH  030%=      5-min Rain = 0
KDC1 190313Z 31021KT 11/M06 A3006 RMK A01 T01061061  RH  030%=      5-min Rain = 0
KDC1 190314Z 31022KT 11/M06 A3006 RMK A01 T01061061  RH  030%=      5-min Rain = 0
KDC1 190315Z 32022KT 11/M06 A3005 RMK A01 T01061061  RH  030%=      5-min Rain = 0
KDC1 190316Z 31022KT 11/M06 A3006 RMK A01 T01061061  RH  030%=      5-min Rain = 0
KDC1 190317Z 32021KT 11/M06 A3005 RMK A01 T01061060  RH  031%=      5-min Rain = 0
KDC1 190318Z 32025KT 11/M06 A3005 RMK A01 T01061060  RH  031%=      5-min Rain = 0
KDC1 190319Z 32022G27KT 11/M06 A3005 RMK A01 T01061060  RH  031%=      5-min Rain = 0
KDC1 190320Z 32025G33KT 11/M06 A3006 RMK A01 T01061060  RH  031%=      5-min Rain = 0
KDC1 190321Z 32028G33KT 11/M06 A3005 RMK A01 T01061060  RH  030%=      5-min Rain = 0
KDC1 190322Z 32025KT 11/M06 A3006 RMK A01 T01071061  RH  030%=      5-min Rain = 0
KDC1 190323Z 32024G29KT 11/M06 A3006 RMK A01 T01071060  RH  030%=      5-min Rain = 0
KDC1 190324Z 32024G30KT 11/M06 A3006 RMK A01 T01061060  RH  031%=      5-min Rain = 0
KDC1 190325Z 33024KT 11/M06 A3006 RMK A01 T01061060  RH  031%=      5-min Rain = 0
KDC1 190326Z 33023G28KT 11/M06 A3006 RMK A01 T01061060  RH  031%=      5-min Rain = 0
KDC1 190327Z 32024KT 11/M06 A3006 RMK A01 T01061060  RH  031%=      5-min Rain = 0
KDC1 190328Z 33023KT 11/M06 A3007 RMK A01 T01061060  RH  031%=      5-min Rain = 0
KDC1 190329Z 33023KT 11/M06 A3007 RMK A01 T01051060  RH  031%=      5-min Rain = 0
KDC1 190330Z 33025KT 11/M06 A3007 RMK A01 T01051060  RH  031%=      5-min Rain = 0
KDC1 190331Z 32025G31KT 10/M06 A3007 RMK A01 T01041060  RH  031%=      5-min Rain = 0
KDC1 190332Z 32024G31KT 11/M06 A3007 RMK A01 T01051060  RH  031%=      5-min Rain = 0
KDC1 190333Z 32022KT 11/M06 A3007 RMK A01 T01051060  RH  031%=      5-min Rain = 0
KDC1 190334Z 32023KT 10/M06 A3007 RMK A01 T01041059  RH  031%=      5-min Rain = 0
KDC1 190335Z 32022KT 10/M06 A3008 RMK A01 T01041059  RH  031%=      5-min Rain = 0
KDC1 190336Z 32022KT 10/M06 A3008 RMK A01 T01041059  RH  031%=      5-min Rain = 0
KDC1 190337Z 32020KT 10/M06 A3008 RMK A01 T01031059  RH  031%=      5-min Rain = 0
KDC1 190338Z 32019KT 10/M06 A3008 RMK A01 T01031059  RH  032%=      5-min Rain = 0
KDC1 190339Z 32019G24KT 10/M06 A3008 RMK A01 T01021059  RH  032%=      5-min Rain = 0
KDC1 190340Z 32020KT 10/M06 A3008 RMK A01 T01011059  RH  032%=      5-min Rain = 0
KDC1 190341Z 32020KT 10/M06 A3008 RMK A01 T01011059  RH  032%=      5-min Rain = 0
KDC1 190342Z 33019KT 10/M06 A3008 RMK A01 T01011059  RH  032%=      5-min Rain = 0
KDC1 190343Z 32017KT 10/M06 A3008 RMK A01 T01011059  RH  032%=      5-min Rain = 0
KDC1 190344Z 33017KT 10/M06 A3008 RMK A01 T01001059  RH  032%=      5-min Rain = 0
KDC1 190345Z 33017KT 10/M06 A3008 RMK A01 T00991059  RH  032%=      5-min Rain = 0
KDC1 190346Z 33018G23KT 10/M06 A3008 RMK A01 T00991058  RH  032%=      5-min Rain = 0
KDC1 190347Z 33017KT 10/M06 A3008 RMK A01 T00991059  RH  032%=      5-min Rain = 0
KDC1 190348Z 33015KT 10/M06 A3009 RMK A01 T00991058  RH  032%=      5-min Rain = 0
KDC1 190349Z 33014KT 10/M06 A3009 RMK A01 T00981059  RH  033%=      5-min Rain = 0
KDC1 190350Z 33014KT 10/M06 A3009 RMK A01 T00971058  RH  033%=      5-min Rain = 0
KDC1 190351Z 33016KT 10/M06 A3009 RMK A01 T00951058  RH  033%=      5-min Rain = 0
KDC1 190352Z 33016KT 10/M06 A3009 RMK A01 T00951059  RH  033%=      5-min Rain = 0
KDC1 190353Z 33014KT 10/M06 A3009 RMK A01 T00961059  RH  033%=      5-min Rain = 0
KDC1 190354Z 33014KT 10/M06 A3009 RMK A01 T00961059  RH  033%=      5-min Rain = 0
KDC1 190355Z 33014G19KT 10/M06 A3009 RMK A01 T00961059  RH  033%=      5-min Rain = 0
KDC1 190356Z 33015KT 10/M06 A3009 RMK A01 T00951059  RH  033%=      5-min Rain = 0
KDC1 190357Z 33015KT 10/M06 A3009 RMK A01 T00951059  RH  033%=      5-min Rain = 0
KDC1 190358Z 33016KT 10/M06 A3009 RMK A01 T00951060  RH  033%=      5-min Rain = 0
KDC1 190359Z 33017KT 10/M06 A3009 RMK A01 T00951060  RH  033%=      5-min Rain = 0
KDC1 190400Z 33017KT 10/M06 A301 RMK A01 T00961060  RH  033%=      5-min Rain = 0
KDC1 190401Z 33017KT 10/M06 A301 RMK A01 T00971059  RH  033%=      5-min Rain = 0
KDC1 190402Z 33017KT 10/M06 A301 RMK A01 T00971059  RH  033%=      5-min Rain = 0
KDC1 190403Z 33019KT 10/M06 A301 RMK A01 T00971058  RH  033%=      5-min Rain = 0
KDC1 190404Z 33021KT 10/M06 A301 RMK A01 T00971058  RH  033%=      5-min Rain = 0
KDC1 190405Z 33021G26KT 10/M06 A301 RMK A01 T00981058  RH  033%=      5-min Rain = 0
KDC1 190406Z 33022KT 10/M06 A301 RMK A01 T00991058  RH  033%=      5-min Rain = 0
KDC1 190407Z 33020G26KT 10/M06 A301 RMK A01 T01001057  RH  033%=      5-min Rain = 0
KDC1 190408Z 33021KT 10/M06 A301 RMK A01 T01001057  RH  033%=      5-min Rain = 0
KDC1 190409Z 33021KT 10/M06 A301 RMK A01 T01011057  RH  032%=      5-min Rain = 0
KDC1 190410Z 32020KT 10/M06 A301 RMK A01 T01011057  RH  032%=      5-min Rain = 0
KDC1 190411Z 32020KT 10/M06 A301 RMK A01 T01001057  RH  032%=      5-min Rain = 0
KDC1 190412Z 32020KT 10/M06 A301 RMK A01 T01001057  RH  033%=      5-min Rain = 0
KDC1 190413Z 32018KT 10/M06 A301 RMK A01 T01011056  RH  033%=      5-min Rain = 0
KDC1 190414Z 32020KT 10/M06 A301 RMK A01 T01001056  RH  033%=      5-min Rain = 0
KDC1 190415Z 32022KT 10/M06 A3011 RMK A01 T01001056  RH  033%=      5-min Rain = 0
KDC1 190416Z 32022KT 10/M06 A301 RMK A01 T01001056  RH  033%=      5-min Rain = 0
KDC1 190417Z 32024G29KT 10/M06 A301 RMK A01 T01001056  RH  033%=      5-min Rain = 0
KDC1 190418Z 33026G32KT 10/M06 A301 RMK A01 T01011055  RH  033%=      5-min Rain = 0
KDC1 190419Z 33024KT 10/M06 A301 RMK A01 T01021055  RH  033%=      5-min Rain = 0
KDC1 190420Z 33027KT 10/M06 A301 RMK A01 T01021055  RH  033%=      5-min Rain = 0
KDC1 190421Z 33029KT 10/M06 A3011 RMK A01 T01021055  RH  033%=      5-min Rain = 0
KDC1 190422Z 33027KT 10/M06 A3011 RMK A01 T01031055  RH  032%=      5-min Rain = 0
KDC1 190423Z 33025G31KT 10/M06 A3011 RMK A01 T01031055  RH  032%=      5-min Rain = 0
KDC1 190424Z 32029G34KT 10/M06 A3011 RMK A01 T01021055  RH  033%=      5-min Rain = 0
KDC1 190425Z 32025G32KT 10/M06 A3011 RMK A01 T01031055  RH  032%=      5-min Rain = 0
KDC1 190426Z 32026KT 10/M06 A3011 RMK A01 T01031056  RH  032%=      5-min Rain = 0
KDC1 190427Z 32026KT 10/M06 A3011 RMK A01 T01031056  RH  032%=      5-min Rain = 0
KDC1 190428Z 31025G30KT 10/M06 A3011 RMK A01 T01021056  RH  032%=      5-min Rain = 0
KDC1 190429Z 31025G31KT 10/M06 A3011 RMK A01 T01021056  RH  032%=      5-min Rain = 0
KDC1 190430Z 31025G31KT 10/M06 A3011 RMK A01 T01011056  RH  033%=      5-min Rain = 0
KDC1 190431Z 31026G31KT 10/M06 A3011 RMK A01 T01011057  RH  033%=      5-min Rain = 0
KDC1 190432Z 31024KT 10/M06 A3011 RMK A01 T01011057  RH  032%=      5-min Rain = 0
KDC1 190433Z 31025G31KT 10/M06 A3011 RMK A01 T01001058  RH  032%=      5-min Rain = 0
KDC1 190434Z 31027KT 10/M06 A3011 RMK A01 T01001059  RH  032%=      5-min Rain = 0
KDC1 190435Z 31026G31KT 10/M06 A3011 RMK A01 T01011060  RH  032%=      5-min Rain = 0
KDC1 190436Z 32026G31KT 10/M06 A3011 RMK A01 T01011061  RH  031%=      5-min Rain = 0
KDC1 190437Z 32023KT 10/M06 A3011 RMK A01 T01011061  RH  031%=      5-min Rain = 0
KDC1 190438Z 32025G30KT 10/M06 A3011 RMK A01 T01011061  RH  031%=      5-min Rain = 0
KDC1 190439Z 32027KT 10/M06 A3012 RMK A01 T01011063  RH  031%=      5-min Rain = 0
KDC1 190440Z 32022G28KT 10/M06 A3012 RMK A01 T01011064  RH  031%=      5-min Rain = 0
KDC1 190441Z 32023KT 10/M06 A3012 RMK A01 T01011064  RH  031%=      5-min Rain = 0
KDC1 190442Z 32021KT 10/M07 A3012 RMK A01 T01001065  RH  031%=      5-min Rain = 0
KDC1 190443Z 32024KT 10/M07 A3012 RMK A01 T01001065  RH  031%=      5-min Rain = 0
KDC1 190444Z 32024KT 10/M07 A3012 RMK A01 T01001066  RH  030%=      5-min Rain = 0
KDC1 190445Z 33026KT 10/M07 A3012 RMK A01 T01001066  RH  030%=      5-min Rain = 0
KDC1 190446Z 33024G29KT 10/M07 A3013 RMK A01 T01011066  RH  030%=      5-min Rain = 0
KDC1 190447Z 33021KT 10/M07 A3013 RMK A01 T01011066  RH  030%=      5-min Rain = 0
KDC1 190448Z 33020G25KT 10/M07 A3013 RMK A01 T00991066  RH  031%=      5-min Rain = 0
KDC1 190449Z 33022KT 10/M07 A3013 RMK A01 T00981065  RH  031%=      5-min Rain = 0
KDC1 190450Z 33020KT 10/M07 A3013 RMK A01 T00981065  RH  031%=      5-min Rain = 0
KDC1 190451Z 33020KT 10/M07 A3013 RMK A01 T00971065  RH  031%=      5-min Rain = 0
KDC1 190452Z 33018G23KT 10/M07 A3014 RMK A01 T00961066  RH  031%=      5-min Rain = 0
KDC1 190453Z 32020KT 10/M07 A3014 RMK A01 T00961066  RH  031%=      5-min Rain = 0
KDC1 190454Z 32020KT 10/M07 A3013 RMK A01 T00961067  RH  031%=      5-min Rain = 0
KDC1 190455Z 32020KT 10/M07 A3013 RMK A01 T00961067  RH  031%=      5-min Rain = 0
KDC1 190456Z 32019KT 10/M07 A3013 RMK A01 T00951067  RH  031%=      5-min Rain = 0
KDC1 190457Z 32020KT 10/M07 A3013 RMK A01 T00951068  RH  031%=      5-min Rain = 0
KDC1 190458Z 32021G26KT 10/M07 A3014 RMK A01 T00951068  RH  031%=      5-min Rain = 0
KDC1 190459Z 32019KT 10/M07 A3014 RMK A01 T00951068  RH  031%=      5-min Rain = 0
KDC1 190500Z 32022KT 09/M07 A3014 RMK A01 T00941069  RH  031%=      5-min Rain = 0
KDC1 190501Z 32018KT 09/M07 A3014 RMK A01 T00941069  RH  031%=      5-min Rain = 0
KDC1 190502Z 32021KT 09/M07 A3014 RMK A01 T00931069  RH  031%=      5-min Rain = 0
KDC1 190503Z 32022G27KT 09/M07 A3014 RMK A01 T00931069  RH  031%=      5-min Rain = 0
KDC1 190504Z 31020KT 09/M07 A3014 RMK A01 T00941070  RH  031%=      5-min Rain = 0
KDC1 190505Z 32020KT 09/M07 A3014 RMK A01 T00941070  RH  031%=      5-min Rain = 0
KDC1 190506Z 31018KT 09/M07 A3014 RMK A01 T00931070  RH  031%=      5-min Rain = 0
KDC1 190507Z 31020KT 09/M07 A3014 RMK A01 T00921070  RH  031%=      5-min Rain = 0
KDC1 190508Z 30022KT 09/M07 A3013 RMK A01 T00921070  RH  031%=      5-min Rain = 0
KDC1 190509Z 30021KT 09/M07 A3013 RMK A01 T00921071  RH  031%=      5-min Rain = 0
KDC1 190510Z 30021KT 09/M07 A3013 RMK A01 T00921072  RH  031%=      5-min Rain = 0
KDC1 190511Z 30022KT 09/M07 A3013 RMK A01 T00911072  RH  031%=      5-min Rain = 0
KDC1 190512Z 31020KT 09/M07 A3013 RMK A01 T00911072  RH  031%=      5-min Rain = 0
KDC1 190513Z 30021KT 09/M07 A3013 RMK A01 T00911073  RH  031%=      5-min Rain = 0
KDC1 190514Z 31020KT 09/M07 A3013 RMK A01 T00911073  RH  031%=      5-min Rain = 0
KDC1 190515Z 30018KT 09/M07 A3014 RMK A01 T00901073  RH  031%=      5-min Rain = 0
KDC1 190516Z 31019KT 09/M07 A3014 RMK A01 T00891073  RH  031%=      5-min Rain = 0
KDC1 190517Z 31020KT 09/M07 A3014 RMK A01 T00891073  RH  031%=      5-min Rain = 0
KDC1 190518Z 31018KT 09/M07 A3014 RMK A01 T00901072  RH  031%=      5-min Rain = 0
KDC1 190519Z 32019KT 09/M07 A3014 RMK A01 T00891073  RH  031%=      5-min Rain = 0
KDC1 190520Z 32020KT 09/M07 A3014 RMK A01 T00891073  RH  031%=      5-min Rain = 0
KDC1 190521Z 32019KT 09/M07 A3014 RMK A01 T00891074  RH  031%=      5-min Rain = 0
KDC1 190522Z 31018G24KT 09/M07 A3014 RMK A01 T00881074  RH  031%=      5-min Rain = 0
KDC1 190523Z 31023KT 09/M07 A3014 RMK A01 T00881074  RH  031%=      5-min Rain = 0
KDC1 190524Z 31020KT 09/M07 A3014 RMK A01 T00881074  RH  031%=      5-min Rain = 0
KDC1 190525Z 31020KT 09/M07 A3014 RMK A01 T00891074  RH  031%=      5-min Rain = 0
KDC1 190526Z 31022KT 09/M08 A3014 RMK A01 T00881075  RH  031%=      5-min Rain = 0
KDC1 190527Z 31021KT 09/M08 A3014 RMK A01 T00891075  RH  031%=      5-min Rain = 0
KDC1 190528Z 31024G29KT 09/M08 A3014 RMK A01 T00881076  RH  031%=      5-min Rain = 0
KDC1 190529Z 31021KT 09/M08 A3014 RMK A01 T00891076  RH  030%=      5-min Rain = 0
KDC1 190530Z 31021KT 09/M08 A3014 RMK A01 T00901076  RH  030%=      5-min Rain = 0
KDC1 190531Z 31020G27KT 09/M08 A3015 RMK A01 T00891076  RH  030%=      5-min Rain = 0
KDC1 190532Z 30019G24KT 09/M08 A3015 RMK A01 T00881076  RH  030%=      5-min Rain = 0
KDC1 190533Z 31022KT 09/M08 A3015 RMK A01 T00871076  RH  031%=      5-min Rain = 0
KDC1 190534Z 30020KT 09/M08 A3015 RMK A01 T00871077  RH  030%=      5-min Rain = 0
KDC1 190535Z 31018KT 09/M08 A3015 RMK A01 T00881077  RH  031%=      5-min Rain = 0
KDC1 190536Z 31019KT 09/M08 A3015 RMK A01 T00871076  RH  031%=      5-min Rain = 0
KDC1 190537Z 31019KT 09/M08 A3015 RMK A01 T00871076  RH  031%=      5-min Rain = 0
KDC1 190538Z 31022KT 09/M08 A3015 RMK A01 T00861077  RH  031%=      5-min Rain = 0
KDC1 190539Z 31020KT 09/M08 A3015 RMK A01 T00871077  RH  031%=      5-min Rain = 0
KDC1 190540Z 31018KT 09/M08 A3015 RMK A01 T00871076  RH  031%=      5-min Rain = 0
KDC1 190541Z 31021KT 09/M08 A3015 RMK A01 T00861077  RH  031%=      5-min Rain = 0
KDC1 190542Z 31020KT 09/M08 A3016 RMK A01 T00871077  RH  031%=      5-min Rain = 0
KDC1 190543Z 31023G28KT 09/M08 A3015 RMK A01 T00871077  RH  030%=      5-min Rain = 0
KDC1 190544Z 31019KT 09/M08 A3016 RMK A01 T00881078  RH  030%=      5-min Rain = 0
KDC1 190545Z 31020KT 09/M08 A3016 RMK A01 T00871078  RH  030%=      5-min Rain = 0
KDC1 190546Z 31020KT 09/M08 A3016 RMK A01 T00871078  RH  030%=      5-min Rain = 0
KDC1 190547Z 31021KT 09/M08 A3016 RMK A01 T00871079  RH  030%=      5-min Rain = 0
KDC1 190548Z 31020KT 09/M08 A3016 RMK A01 T00871079  RH  030%=      5-min Rain = 0
KDC1 190549Z 31020KT 09/M08 A3016 RMK A01 T00871079  RH  030%=      5-min Rain = 0
KDC1 190550Z 31016G21KT 09/M08 A3016 RMK A01 T00871079  RH  030%=      5-min Rain = 0
KDC1 190551Z 31016KT 09/M08 A3016 RMK A01 T00851079  RH  030%=      5-min Rain = 0
KDC1 190552Z 31018KT 08/M08 A3017 RMK A01 T00841079  RH  031%=      5-min Rain = 0
KDC1 190553Z 31020KT 08/M08 A3017 RMK A01 T00841079  RH  031%=      5-min Rain = 0
KDC1 190554Z 31017KT 09/M08 A3017 RMK A01 T00851079  RH  030%=      5-min Rain = 0
KDC1 190555Z 31020KT 09/M08 A3017 RMK A01 T00851079  RH  030%=      5-min Rain = 0
KDC1 190556Z 31018KT 09/M08 A3017 RMK A01 T00851079  RH  030%=      5-min Rain = 0
KDC1 190557Z 31018KT 09/M08 A3017 RMK A01 T00851079  RH  031%=      5-min Rain = 0
KDC1 190558Z 31019KT 08/M08 A3017 RMK A01 T00841079  RH  031%=      5-min Rain = 0
KDC1 190559Z 31019KT 08/M08 A3017 RMK A01 T00841079  RH  031%=      5-min Rain = 0

Page generated in 0.0776 seconds.